UAL1340 KEWR-KSFO
Flight info
| Callsign | UAL1340 |
|---|---|
| Flight time | N/A |
| Altitude | 34000 |
| Route | ZIMMZ Q42 LEWRP PWE MCK/N0455F360 VOAXA Q136 RUMPS OAL INYOE DYAMD5 |
| Aircraft | B738/M-SDE2E3FGHIRWXY/LB1 |
Departure
| Time | 2026-04-25 23:16 |
|---|---|
| Airport | Newark Liberty International Airport (KEWR) |
Arrival
| Time | N/A |
|---|---|
| Airport | San Francisco International Airport (KSFO) |
| Time | Latitude | Longitude | Altitude | Speed | Heading |
|---|---|---|---|---|---|
| 2026-04-25 22:14 | 40.69681 | -74.17504 | 21 ft | 0 kts | 309° |
| 2026-04-25 23:01 | 40.69679 | -74.17500 | 21 ft | 3 kts | 311° |
| 2026-04-25 23:01 | 40.69660 | -74.17479 | 22 ft | 4 kts | 345° |
| 2026-04-25 23:01 | 40.69635 | -74.17479 | 23 ft | 4 kts | 24° |
| 2026-04-25 23:02 | 40.69613 | -74.17497 | 21 ft | 2 kts | 40° |
| 2026-04-25 23:02 | 40.69611 | -74.17499 | 21 ft | 0 kts | 40° |
| 2026-04-25 23:05 | 40.69612 | -74.17498 | 21 ft | 2 kts | 40° |
| 2026-04-25 23:05 | 40.69630 | -74.17478 | 23 ft | 6 kts | 41° |
| 2026-04-25 23:06 | 40.69663 | -74.17439 | 22 ft | 6 kts | 41° |
| 2026-04-25 23:06 | 40.69697 | -74.17402 | 22 ft | 7 kts | 41° |
| 2026-04-25 23:06 | 40.69739 | -74.17354 | 22 ft | 10 kts | 38° |
| 2026-04-25 23:06 | 40.69787 | -74.17296 | 21 ft | 9 kts | 64° |
| 2026-04-25 23:07 | 40.69758 | -74.17227 | 21 ft | 9 kts | 137° |
| 2026-04-25 23:07 | 40.69703 | -74.17173 | 23 ft | 10 kts | 147° |
| 2026-04-25 23:07 | 40.69640 | -74.17137 | 21 ft | 10 kts | 153° |
| 2026-04-25 23:07 | 40.69579 | -74.17098 | 22 ft | 10 kts | 161° |
| 2026-04-25 23:08 | 40.69515 | -74.17077 | 21 ft | 9 kts | 168° |
| 2026-04-25 23:08 | 40.69450 | -74.17068 | 21 ft | 10 kts | 178° |
| 2026-04-25 23:08 | 40.69365 | -74.17069 | 21 ft | 13 kts | 187° |
| 2026-04-25 23:08 | 40.69286 | -74.17114 | 21 ft | 12 kts | 206° |
| 2026-04-25 23:09 | 40.69210 | -74.17162 | 22 ft | 12 kts | 205° |
| 2026-04-25 23:09 | 40.69136 | -74.17209 | 21 ft | 12 kts | 206° |
| 2026-04-25 23:09 | 40.69087 | -74.17240 | 21 ft | 11 kts | 206° |
| 2026-04-25 23:09 | 40.68988 | -74.17303 | 21 ft | 13 kts | 205° |
| 2026-04-25 23:10 | 40.68906 | -74.17355 | 21 ft | 13 kts | 206° |
| 2026-04-25 23:10 | 40.68855 | -74.17388 | 22 ft | 12 kts | 205° |
| 2026-04-25 23:10 | 40.68780 | -74.17436 | 21 ft | 12 kts | 206° |
| 2026-04-25 23:10 | 40.68707 | -74.17483 | 21 ft | 12 kts | 206° |
| 2026-04-25 23:11 | 40.68635 | -74.17528 | 22 ft | 11 kts | 206° |
| 2026-04-25 23:11 | 40.68547 | -74.17584 | 21 ft | 15 kts | 205° |
| 2026-04-25 23:11 | 40.68455 | -74.17642 | 21 ft | 14 kts | 205° |
| 2026-04-25 23:11 | 40.68365 | -74.17700 | 21 ft | 14 kts | 206° |
| 2026-04-25 23:12 | 40.68279 | -74.17754 | 21 ft | 14 kts | 205° |
| 2026-04-25 23:12 | 40.68193 | -74.17809 | 21 ft | 15 kts | 206° |
| 2026-04-25 23:12 | 40.68103 | -74.17865 | 21 ft | 14 kts | 206° |
| 2026-04-25 23:12 | 40.68019 | -74.17920 | 21 ft | 13 kts | 207° |
| 2026-04-25 23:13 | 40.67937 | -74.17972 | 21 ft | 13 kts | 205° |
| 2026-04-25 23:13 | 40.67858 | -74.18022 | 21 ft | 13 kts | 206° |
| 2026-04-25 23:13 | 40.67779 | -74.18072 | 21 ft | 13 kts | 205° |
| 2026-04-25 23:13 | 40.67701 | -74.18121 | 21 ft | 12 kts | 205° |
| 2026-04-25 23:14 | 40.67629 | -74.18092 | 21 ft | 12 kts | 130° |
| 2026-04-25 23:14 | 40.67576 | -74.18009 | 21 ft | 12 kts | 127° |
| 2026-04-25 23:14 | 40.67557 | -74.17939 | 22 ft | 3 kts | 66° |
| 2026-04-25 23:14 | 40.67574 | -74.17923 | 22 ft | 3 kts | 26° |
| 2026-04-25 23:15 | 40.67581 | -74.17918 | 22 ft | 0 kts | 26° |
| 2026-04-25 23:15 | 40.67606 | -74.17902 | 21 ft | 23 kts | 26° |
| 2026-04-25 23:16 | 40.67996 | -74.17654 | 19 ft | 100 kts | 26° |
| 2026-04-25 23:16 | 40.68822 | -74.17116 | 25 ft | 162 kts | 27° |
| 2026-04-25 23:16 | 40.69934 | -74.16490 | 574 ft | 182 kts | 27° |
| 2026-04-25 23:16 | 40.71057 | -74.15663 | 1327 ft | 195 kts | 43° |
| 2026-04-25 23:17 | 40.72037 | -74.14316 | 1631 ft | 215 kts | 54° |
| 2026-04-25 23:17 | 40.73013 | -74.12748 | 2139 ft | 224 kts | 54° |
| 2026-04-25 23:17 | 40.74074 | -74.11162 | 2574 ft | 243 kts | 52° |
| 2026-04-25 23:17 | 40.75359 | -74.09567 | 3085 ft | 264 kts | 34° |
| 2026-04-25 23:18 | 40.77142 | -74.08892 | 3892 ft | 278 kts | 2° |
| 2026-04-25 23:18 | 40.79004 | -74.09534 | 4608 ft | 283 kts | 326° |
| 2026-04-25 23:18 | 40.80379 | -74.11321 | 5519 ft | 270 kts | 290° |
| 2026-04-25 23:18 | 40.80690 | -74.13639 | 6584 ft | 246 kts | 261° |
| 2026-04-25 23:19 | 40.80571 | -74.15827 | 7684 ft | 239 kts | 266° |
| 2026-04-25 23:19 | 40.80577 | -74.18032 | 8265 ft | 251 kts | 269° |
| 2026-04-25 23:19 | 40.80609 | -74.20382 | 8904 ft | 258 kts | 269° |
| 2026-04-25 23:19 | 40.80628 | -74.22758 | 9712 ft | 260 kts | 269° |
| 2026-04-25 23:20 | 40.80644 | -74.25155 | 10391 ft | 267 kts | 269° |
| 2026-04-25 23:20 | 40.80652 | -74.27708 | 10563 ft | 290 kts | 269° |
| 2026-04-25 23:20 | 40.80656 | -74.30471 | 10739 ft | 312 kts | 269° |
| 2026-04-25 23:20 | 40.80656 | -74.33435 | 10904 ft | 333 kts | 269° |
| 2026-04-25 23:21 | 40.80654 | -74.36536 | 11375 ft | 342 kts | 269° |
| 2026-04-25 23:21 | 40.80652 | -74.39700 | 11949 ft | 347 kts | 269° |
| 2026-04-25 23:21 | 40.80648 | -74.42894 | 12606 ft | 350 kts | 269° |
| 2026-04-25 23:21 | 40.80642 | -74.46123 | 13247 ft | 354 kts | 270° |
| 2026-04-25 23:22 | 40.80636 | -74.49387 | 13876 ft | 358 kts | 270° |
| 2026-04-25 23:22 | 40.80627 | -74.52687 | 14440 ft | 361 kts | 270° |
| 2026-04-25 23:22 | 40.80618 | -74.56018 | 15010 ft | 365 kts | 270° |
| 2026-04-25 23:23 | 40.80595 | -74.62788 | 16092 ft | 373 kts | 270° |
| 2026-04-25 23:23 | 40.80581 | -74.66221 | 16640 ft | 376 kts | 270° |
| 2026-04-25 23:23 | 40.80567 | -74.69693 | 17156 ft | 380 kts | 270° |
| 2026-04-25 23:23 | 40.80551 | -74.73198 | 17688 ft | 384 kts | 270° |
| 2026-04-25 23:24 | 40.80535 | -74.76729 | 18209 ft | 387 kts | 270° |
| 2026-04-25 23:24 | 40.80516 | -74.80301 | 18679 ft | 391 kts | 270° |
| 2026-04-25 23:24 | 40.80497 | -74.83891 | 19178 ft | 392 kts | 270° |
| 2026-04-25 23:24 | 40.80477 | -74.87499 | 19691 ft | 394 kts | 270° |
| 2026-04-25 23:25 | 40.80455 | -74.91121 | 20180 ft | 396 kts | 270° |
| 2026-04-25 23:25 | 40.80432 | -74.94762 | 20671 ft | 398 kts | 269° |
| 2026-04-25 23:25 | 40.80408 | -74.98422 | 21138 ft | 400 kts | 269° |
| 2026-04-25 23:25 | 40.80383 | -75.02099 | 21598 ft | 402 kts | 269° |
| 2026-04-25 23:26 | 40.80356 | -75.05800 | 22034 ft | 405 kts | 269° |
| 2026-04-25 23:26 | 40.80328 | -75.09529 | 22366 ft | 409 kts | 269° |
| 2026-04-25 23:26 | 40.80322 | -75.13233 | 22834 ft | 409 kts | 271° |
| 2026-04-25 23:26 | 40.80483 | -75.16994 | 23293 ft | 411 kts | 274° |
| 2026-04-25 23:27 | 40.80718 | -75.20760 | 23681 ft | 413 kts | 274° |
| 2026-04-25 23:27 | 40.80979 | -75.24544 | 23999 ft | 415 kts | 274° |
| 2026-04-25 23:27 | 40.81244 | -75.28345 | 24368 ft | 416 kts | 274° |
| 2026-04-25 23:27 | 40.81502 | -75.32156 | 24747 ft | 417 kts | 274° |
| 2026-04-25 23:28 | 40.81751 | -75.35965 | 25120 ft | 417 kts | 274° |
| 2026-04-25 23:28 | 40.81993 | -75.39781 | 25481 ft | 417 kts | 274° |
| 2026-04-25 23:28 | 40.82230 | -75.43602 | 25818 ft | 419 kts | 273° |
| 2026-04-25 23:28 | 40.82463 | -75.47454 | 26065 ft | 422 kts | 273° |
| 2026-04-25 23:29 | 40.82695 | -75.51322 | 26357 ft | 424 kts | 273° |
| 2026-04-25 23:29 | 40.82926 | -75.55205 | 26703 ft | 424 kts | 273° |
| 2026-04-25 23:29 | 40.83156 | -75.59093 | 27059 ft | 424 kts | 273° |
| 2026-04-25 23:29 | 40.83384 | -75.62968 | 27411 ft | 424 kts | 273° |
| 2026-04-25 23:30 | 40.83610 | -75.66843 | 27836 ft | 422 kts | 273° |
| 2026-04-25 23:30 | 40.83835 | -75.70697 | 28370 ft | 418 kts | 272° |
| 2026-04-25 23:30 | 40.84055 | -75.74496 | 28913 ft | 413 kts | 272° |
| 2026-04-25 23:30 | 40.84272 | -75.78266 | 29430 ft | 410 kts | 272° |
| 2026-04-25 23:31 | 40.84487 | -75.82021 | 29749 ft | 411 kts | 272° |
| 2026-04-25 23:31 | 40.84700 | -75.85797 | 30000 ft | 413 kts | 272° |
| 2026-04-25 23:31 | 40.84913 | -75.89575 | 30376 ft | 411 kts | 272° |
| 2026-04-25 23:31 | 40.85124 | -75.93323 | 30827 ft | 407 kts | 272° |
| 2026-04-25 23:32 | 40.85332 | -75.97032 | 31263 ft | 404 kts | 272° |
| 2026-04-25 23:32 | 40.85537 | -76.00721 | 31630 ft | 402 kts | 272° |
| 2026-04-25 23:32 | 40.85740 | -76.04408 | 31966 ft | 401 kts | 272° |
| 2026-04-25 23:32 | 40.85941 | -76.08072 | 32325 ft | 399 kts | 272° |
| 2026-04-25 23:33 | 40.86140 | -76.11712 | 32709 ft | 397 kts | 271° |
| 2026-04-25 23:33 | 40.86337 | -76.15344 | 33092 ft | 395 kts | 271° |
| 2026-04-25 23:33 | 40.86532 | -76.18974 | 33333 ft | 396 kts | 271° |
| 2026-04-25 23:33 | 40.86721 | -76.22558 | 33575 ft | 397 kts | 271° |
| 2026-04-25 23:34 | 40.86913 | -76.26237 | 33887 ft | 396 kts | 271° |
| 2026-04-25 23:34 | 40.87099 | -76.29805 | 34017 ft | 398 kts | 271° |
| 2026-04-25 23:34 | 40.87293 | -76.33469 | 34030 ft | 399 kts | 271° |
| 2026-04-25 23:35 | 40.87679 | -76.40764 | 34019 ft | 394 kts | 271° |
| 2026-04-25 23:35 | 40.88053 | -76.47953 | 34028 ft | 392 kts | 271° |
| 2026-04-25 23:36 | 40.88418 | -76.55122 | 34024 ft | 392 kts | 271° |
| 2026-04-25 23:36 | 40.88779 | -76.62317 | 34018 ft | 392 kts | 271° |
| 2026-04-25 23:37 | 40.89136 | -76.69507 | 34018 ft | 392 kts | 270° |
| 2026-04-25 23:37 | 40.89488 | -76.76706 | 34016 ft | 393 kts | 270° |
| 2026-04-25 23:38 | 40.89837 | -76.83915 | 34013 ft | 393 kts | 270° |
| 2026-04-25 23:38 | 40.90183 | -76.91128 | 34019 ft | 394 kts | 270° |
| 2026-04-25 23:39 | 40.90523 | -76.98352 | 33999 ft | 394 kts | 270° |
| 2026-04-25 23:39 | 40.90859 | -77.05578 | 34011 ft | 394 kts | 270° |
| 2026-04-25 23:40 | 40.91191 | -77.12807 | 34000 ft | 394 kts | 270° |
| 2026-04-25 23:40 | 40.91518 | -77.20031 | 33999 ft | 394 kts | 270° |
| 2026-04-25 23:41 | 40.91840 | -77.27255 | 34001 ft | 394 kts | 269° |
| 2026-04-25 23:41 | 40.92158 | -77.34477 | 33994 ft | 394 kts | 269° |
| 2026-04-25 23:42 | 40.92471 | -77.41704 | 33984 ft | 394 kts | 269° |
| 2026-04-25 23:42 | 40.92780 | -77.48931 | 33982 ft | 394 kts | 269° |
| 2026-04-25 23:43 | 40.93085 | -77.56160 | 33980 ft | 393 kts | 269° |
| 2026-04-25 23:43 | 40.93385 | -77.63386 | 33988 ft | 394 kts | 268° |
| 2026-04-25 23:44 | 40.93678 | -77.70555 | 33977 ft | 394 kts | 268° |
| 2026-04-25 23:44 | 40.93969 | -77.77793 | 33969 ft | 393 kts | 268° |
| 2026-04-25 23:45 | 40.94255 | -77.85014 | 33964 ft | 393 kts | 268° |
| 2026-04-25 23:45 | 40.94536 | -77.92231 | 33965 ft | 393 kts | 268° |
| 2026-04-25 23:46 | 40.94812 | -77.99451 | 33969 ft | 393 kts | 267° |
| 2026-04-25 23:46 | 40.95085 | -78.06675 | 33959 ft | 393 kts | 267° |
| 2026-04-25 23:47 | 40.95353 | -78.13902 | 33954 ft | 393 kts | 267° |
| 2026-04-25 23:47 | 40.95617 | -78.21132 | 33930 ft | 393 kts | 267° |
| 2026-04-25 23:48 | 40.95876 | -78.28354 | 33941 ft | 393 kts | 267° |
| 2026-04-25 23:48 | 40.96131 | -78.35577 | 33956 ft | 393 kts | 267° |
| 2026-04-25 23:49 | 40.96381 | -78.42799 | 33955 ft | 394 kts | 267° |
| 2026-04-25 23:49 | 40.96626 | -78.50036 | 33954 ft | 394 kts | 267° |
| 2026-04-25 23:50 | 40.96867 | -78.57276 | 33947 ft | 394 kts | 267° |
| 2026-04-25 23:50 | 40.97104 | -78.64507 | 33949 ft | 394 kts | 267° |
| 2026-04-25 23:51 | 40.97338 | -78.71744 | 33957 ft | 394 kts | 266° |
| 2026-04-25 23:51 | 40.97565 | -78.78993 | 33936 ft | 394 kts | 266° |
| 2026-04-25 23:52 | 40.97788 | -78.86231 | 33938 ft | 393 kts | 266° |
| 2026-04-25 23:52 | 40.98007 | -78.93462 | 33940 ft | 393 kts | 266° |
| 2026-04-25 23:53 | 40.98220 | -79.00682 | 33937 ft | 392 kts | 266° |
| 2026-04-25 23:53 | 40.98428 | -79.07847 | 33951 ft | 392 kts | 266° |
| 2026-04-25 23:54 | 40.98632 | -79.15060 | 33947 ft | 392 kts | 266° |
| 2026-04-25 23:54 | 40.98833 | -79.22316 | 33947 ft | 392 kts | 266° |
| 2026-04-25 23:55 | 40.99027 | -79.29474 | 33956 ft | 392 kts | 266° |
| 2026-04-25 23:55 | 40.99218 | -79.36679 | 33969 ft | 392 kts | 266° |
| 2026-04-25 23:56 | 40.99406 | -79.43878 | 33987 ft | 392 kts | 266° |
| 2026-04-25 23:56 | 40.99585 | -79.51119 | 33970 ft | 395 kts | 267° |
| 2026-04-25 23:57 | 40.99763 | -79.58406 | 33985 ft | 398 kts | 267° |
| 2026-04-25 23:57 | 40.99938 | -79.65765 | 33977 ft | 402 kts | 267° |
| 2026-04-25 23:58 | 41.00111 | -79.73188 | 33990 ft | 404 kts | 267° |
| 2026-04-25 23:58 | 41.00281 | -79.80635 | 33993 ft | 406 kts | 268° |
| 2026-04-25 23:59 | 41.00447 | -79.88116 | 33999 ft | 407 kts | 268° |
| 2026-04-25 23:59 | 41.00607 | -79.95616 | 34000 ft | 409 kts | 268° |
| 2026-04-26 00:00 | 41.00762 | -80.03146 | 33997 ft | 409 kts | 268° |
| 2026-04-26 00:00 | 41.00888 | -80.09410 | 34001 ft | 410 kts | 268° |
| 2026-04-26 00:01 | 41.01036 | -80.16949 | 34016 ft | 409 kts | 269° |
| 2026-04-26 00:01 | 41.01178 | -80.24489 | 34004 ft | 410 kts | 269° |
| 2026-04-26 00:02 | 41.01316 | -80.32030 | 34029 ft | 410 kts | 269° |
| 2026-04-26 00:02 | 41.01448 | -80.39565 | 34026 ft | 409 kts | 269° |
| 2026-04-26 00:03 | 41.01575 | -80.47092 | 34025 ft | 409 kts | 269° |
| 2026-04-26 00:03 | 41.01697 | -80.54619 | 34035 ft | 409 kts | 270° |
| 2026-04-26 00:04 | 41.01815 | -80.62148 | 34024 ft | 409 kts | 270° |
| 2026-04-26 00:04 | 41.01928 | -80.69686 | 34015 ft | 410 kts | 270° |
| 2026-04-26 00:05 | 41.02036 | -80.77235 | 34013 ft | 410 kts | 270° |
| 2026-04-26 00:05 | 41.02139 | -80.84796 | 34011 ft | 411 kts | 270° |
| 2026-04-26 00:06 | 41.02237 | -80.92372 | 34012 ft | 412 kts | 270° |
| 2026-04-26 00:06 | 41.02330 | -80.99920 | 34013 ft | 413 kts | 270° |
| 2026-04-26 00:07 | 41.02419 | -81.07532 | 34018 ft | 414 kts | 270° |
| 2026-04-26 00:07 | 41.02504 | -81.15184 | 34021 ft | 416 kts | 270° |
| 2026-04-26 00:08 | 41.02583 | -81.22841 | 34018 ft | 416 kts | 270° |
| 2026-04-26 00:08 | 41.02658 | -81.30519 | 34019 ft | 417 kts | 270° |
| 2026-04-26 00:09 | 41.02727 | -81.38213 | 34032 ft | 418 kts | 270° |
| 2026-04-26 00:09 | 41.02792 | -81.45916 | 34029 ft | 419 kts | 269° |
| 2026-04-26 00:10 | 41.02851 | -81.53632 | 34029 ft | 419 kts | 269° |
| 2026-04-26 00:10 | 41.02906 | -81.61348 | 34020 ft | 419 kts | 269° |
| 2026-04-26 00:11 | 41.02955 | -81.69057 | 34025 ft | 419 kts | 269° |
| 2026-04-26 00:11 | 41.02999 | -81.76776 | 34041 ft | 419 kts | 269° |
| 2026-04-26 00:12 | 41.03038 | -81.84494 | 34042 ft | 419 kts | 269° |
| 2026-04-26 00:12 | 41.03071 | -81.92200 | 34036 ft | 419 kts | 269° |
| 2026-04-26 00:13 | 41.03100 | -81.99916 | 34041 ft | 419 kts | 269° |
| 2026-04-26 00:13 | 41.03123 | -82.07577 | 34035 ft | 419 kts | 269° |
| 2026-04-26 00:14 | 41.03142 | -82.15282 | 34038 ft | 418 kts | 269° |
| 2026-04-26 00:14 | 41.03155 | -82.22981 | 34037 ft | 418 kts | 269° |
| 2026-04-26 00:15 | 41.03163 | -82.30682 | 34031 ft | 418 kts | 269° |
| 2026-04-26 00:15 | 41.03166 | -82.38378 | 34035 ft | 418 kts | 269° |
| 2026-04-26 00:16 | 41.03163 | -82.46080 | 34033 ft | 418 kts | 269° |
| 2026-04-26 00:16 | 41.03156 | -82.53778 | 34042 ft | 418 kts | 269° |
| 2026-04-26 00:17 | 41.03144 | -82.61489 | 34043 ft | 419 kts | 269° |
| 2026-04-26 00:17 | 41.03126 | -82.69213 | 34041 ft | 420 kts | 269° |
| 2026-04-26 00:18 | 41.03103 | -82.76941 | 34040 ft | 420 kts | 269° |
| 2026-04-26 00:18 | 41.03075 | -82.84681 | 34033 ft | 421 kts | 269° |
| 2026-04-26 00:19 | 41.03042 | -82.92438 | 34033 ft | 421 kts | 269° |
| 2026-04-26 00:19 | 41.03003 | -83.00203 | 34034 ft | 422 kts | 269° |
| 2026-04-26 00:20 | 41.02959 | -83.07976 | 34036 ft | 423 kts | 269° |
| 2026-04-26 00:20 | 41.02911 | -83.15711 | 34035 ft | 423 kts | 269° |
| 2026-04-26 00:21 | 41.02856 | -83.23510 | 34036 ft | 424 kts | 270° |
| 2026-04-26 00:21 | 41.02797 | -83.31322 | 34033 ft | 424 kts | 270° |
| 2026-04-26 00:22 | 41.02732 | -83.39137 | 34036 ft | 425 kts | 270° |
| 2026-04-26 00:22 | 41.02661 | -83.46965 | 34042 ft | 425 kts | 270° |
| 2026-04-26 00:23 | 41.02585 | -83.54796 | 34048 ft | 425 kts | 270° |
| 2026-04-26 00:23 | 41.02504 | -83.62633 | 34046 ft | 426 kts | 270° |
| 2026-04-26 00:24 | 41.02418 | -83.70476 | 34043 ft | 426 kts | 270° |
| 2026-04-26 00:24 | 41.02326 | -83.78320 | 34048 ft | 426 kts | 270° |
| 2026-04-26 00:25 | 41.02228 | -83.86165 | 34065 ft | 426 kts | 270° |
| 2026-04-26 00:25 | 41.02126 | -83.94009 | 34056 ft | 426 kts | 270° |
| 2026-04-26 00:26 | 41.02018 | -84.01854 | 34068 ft | 426 kts | 270° |
| 2026-04-26 00:26 | 41.01905 | -84.09700 | 34064 ft | 426 kts | 270° |
| 2026-04-26 00:27 | 41.01786 | -84.17545 | 34057 ft | 426 kts | 270° |
| 2026-04-26 00:27 | 41.01662 | -84.25402 | 34050 ft | 426 kts | 270° |
| 2026-04-26 00:28 | 41.01533 | -84.33246 | 34038 ft | 426 kts | 270° |
| 2026-04-26 00:28 | 41.01399 | -84.41099 | 34034 ft | 426 kts | 270° |
| 2026-04-26 00:29 | 41.01259 | -84.48952 | 34035 ft | 427 kts | 270° |
| 2026-04-26 00:29 | 41.01113 | -84.56808 | 34035 ft | 427 kts | 269° |
| 2026-04-26 00:30 | 41.00963 | -84.64660 | 34032 ft | 427 kts | 269° |
| 2026-04-26 00:30 | 41.00807 | -84.72515 | 34027 ft | 427 kts | 269° |
| 2026-04-26 00:31 | 41.00647 | -84.80317 | 34037 ft | 427 kts | 269° |
| 2026-04-26 00:31 | 41.00480 | -84.88179 | 34025 ft | 427 kts | 269° |
| 2026-04-26 00:32 | 41.00308 | -84.96051 | 34027 ft | 428 kts | 269° |
| 2026-04-26 00:32 | 41.00039 | -85.07867 | 34027 ft | 428 kts | 269° |
| 2026-04-26 00:33 | 40.99853 | -85.15750 | 34026 ft | 428 kts | 269° |
| 2026-04-26 00:33 | 40.99661 | -85.23626 | 34027 ft | 429 kts | 269° |
| 2026-04-26 00:34 | 40.99465 | -85.31512 | 34017 ft | 429 kts | 269° |
| 2026-04-26 00:34 | 40.99262 | -85.39402 | 34015 ft | 429 kts | 269° |
| 2026-04-26 00:35 | 40.99055 | -85.47279 | 34018 ft | 428 kts | 269° |
| 2026-04-26 00:35 | 40.98842 | -85.55151 | 34012 ft | 427 kts | 269° |
| 2026-04-26 00:36 | 40.98625 | -85.63001 | 34007 ft | 427 kts | 269° |
| 2026-04-26 00:36 | 40.98402 | -85.70842 | 34007 ft | 426 kts | 269° |
| 2026-04-26 00:37 | 40.98175 | -85.78663 | 33998 ft | 425 kts | 269° |
| 2026-04-26 00:37 | 40.97943 | -85.86472 | 34005 ft | 424 kts | 269° |
| 2026-04-26 00:38 | 40.97706 | -85.94276 | 34009 ft | 424 kts | 269° |
| 2026-04-26 00:38 | 40.97463 | -86.02074 | 34019 ft | 424 kts | 269° |
| 2026-04-26 00:39 | 40.97216 | -86.09866 | 34022 ft | 424 kts | 269° |
| 2026-04-26 00:39 | 40.96963 | -86.17663 | 34031 ft | 424 kts | 268° |
| 2026-04-26 00:40 | 40.96705 | -86.25459 | 33994 ft | 424 kts | 268° |
| 2026-04-26 00:40 | 40.96442 | -86.33251 | 33995 ft | 424 kts | 268° |
| 2026-04-26 00:41 | 40.96173 | -86.41045 | 34000 ft | 424 kts | 268° |
| 2026-04-26 00:41 | 40.95901 | -86.48778 | 34001 ft | 424 kts | 268° |
| 2026-04-26 00:42 | 40.95622 | -86.56566 | 34008 ft | 424 kts | 268° |
| 2026-04-26 00:42 | 40.95338 | -86.64353 | 34014 ft | 424 kts | 268° |
| 2026-04-26 00:43 | 40.95049 | -86.72143 | 34010 ft | 424 kts | 268° |
| 2026-04-26 00:43 | 40.94754 | -86.79935 | 34030 ft | 424 kts | 268° |
| 2026-04-26 00:44 | 40.94454 | -86.87728 | 34038 ft | 424 kts | 268° |
| 2026-04-26 00:44 | 40.94148 | -86.95521 | 34061 ft | 425 kts | 267° |
| 2026-04-26 00:45 | 40.93890 | -87.02007 | 34062 ft | 425 kts | 267° |
| 2026-04-26 00:45 | 40.93521 | -87.11140 | 34065 ft | 426 kts | 267° |
| 2026-04-26 00:46 | 40.93198 | -87.18959 | 34030 ft | 426 kts | 267° |
| 2026-04-26 00:46 | 40.92870 | -87.26782 | 34036 ft | 426 kts | 267° |
| 2026-04-26 00:47 | 40.92537 | -87.34600 | 34034 ft | 426 kts | 267° |
| 2026-04-26 00:47 | 40.92199 | -87.42424 | 34040 ft | 426 kts | 267° |
| 2026-04-26 00:48 | 40.91855 | -87.50250 | 34043 ft | 426 kts | 267° |
| 2026-04-26 00:48 | 40.91508 | -87.58018 | 34053 ft | 426 kts | 267° |
| 2026-04-26 00:49 | 40.91152 | -87.65888 | 34055 ft | 426 kts | 266° |
| 2026-04-26 00:49 | 40.90795 | -87.73653 | 34067 ft | 426 kts | 266° |
| 2026-04-26 00:50 | 40.90430 | -87.81466 | 34059 ft | 426 kts | 266° |
| 2026-04-26 00:50 | 40.90060 | -87.89274 | 34059 ft | 426 kts | 266° |
| 2026-04-26 00:51 | 40.89746 | -87.95821 | 34060 ft | 426 kts | 266° |
| 2026-04-26 00:51 | 40.89367 | -88.03628 | 34049 ft | 426 kts | 266° |
| 2026-04-26 00:52 | 40.88983 | -88.11431 | 34046 ft | 426 kts | 266° |
| 2026-04-26 00:52 | 40.88593 | -88.19237 | 34037 ft | 426 kts | 266° |
| 2026-04-26 00:53 | 40.88200 | -88.26989 | 34034 ft | 426 kts | 266° |
| 2026-04-26 00:53 | 40.87800 | -88.34792 | 34035 ft | 426 kts | 266° |
| 2026-04-26 00:54 | 40.87394 | -88.42605 | 34031 ft | 426 kts | 266° |
| 2026-04-26 00:54 | 40.86982 | -88.50416 | 34048 ft | 426 kts | 266° |
| 2026-04-26 00:55 | 40.86566 | -88.58223 | 34035 ft | 426 kts | 266° |
| 2026-04-26 00:55 | 40.86144 | -88.66025 | 34038 ft | 426 kts | 266° |
| 2026-04-26 00:56 | 40.85718 | -88.73812 | 34037 ft | 425 kts | 266° |
| 2026-04-26 00:56 | 40.85287 | -88.81599 | 34033 ft | 425 kts | 266° |
| 2026-04-26 00:57 | 40.84850 | -88.89370 | 34035 ft | 424 kts | 266° |
| 2026-04-26 00:57 | 40.84411 | -88.97122 | 34023 ft | 423 kts | 266° |
| 2026-04-26 00:58 | 40.83966 | -89.04864 | 34016 ft | 422 kts | 266° |
| 2026-04-26 00:58 | 40.83518 | -89.12589 | 34018 ft | 422 kts | 266° |
| 2026-04-26 00:59 | 40.83064 | -89.20302 | 34017 ft | 421 kts | 266° |
| 2026-04-26 00:59 | 40.82606 | -89.28008 | 34028 ft | 420 kts | 266° |
| 2026-04-26 01:00 | 40.82144 | -89.35696 | 34018 ft | 420 kts | 266° |
| 2026-04-26 01:00 | 40.81680 | -89.43322 | 34023 ft | 419 kts | 266° |
| 2026-04-26 01:01 | 40.81209 | -89.50982 | 34024 ft | 419 kts | 266° |
| 2026-04-26 01:01 | 40.80734 | -89.58636 | 34015 ft | 418 kts | 266° |
| 2026-04-26 01:02 | 40.80254 | -89.66285 | 34021 ft | 418 kts | 266° |
| 2026-04-26 01:02 | 40.79769 | -89.73925 | 34013 ft | 418 kts | 266° |
| 2026-04-26 01:03 | 40.79279 | -89.81565 | 34016 ft | 418 kts | 266° |
| 2026-04-26 01:03 | 40.78784 | -89.89204 | 34011 ft | 418 kts | 266° |
| 2026-04-26 01:04 | 40.78283 | -89.96850 | 34011 ft | 418 kts | 266° |
| 2026-04-26 01:04 | 40.77777 | -90.04496 | 34020 ft | 418 kts | 266° |
| 2026-04-26 01:05 | 40.77267 | -90.12140 | 34008 ft | 418 kts | 266° |
| 2026-04-26 01:05 | 40.76752 | -90.19762 | 34007 ft | 417 kts | 266° |
| 2026-04-26 01:06 | 40.76234 | -90.27367 | 34007 ft | 416 kts | 266° |
| 2026-04-26 01:06 | 40.75712 | -90.34955 | 34003 ft | 415 kts | 266° |
| 2026-04-26 01:07 | 40.75189 | -90.42474 | 34011 ft | 414 kts | 266° |
| 2026-04-26 01:07 | 40.74659 | -90.50027 | 34002 ft | 413 kts | 266° |
| 2026-04-26 01:08 | 40.74126 | -90.57560 | 34009 ft | 413 kts | 266° |
| 2026-04-26 01:08 | 40.73588 | -90.65091 | 34003 ft | 412 kts | 266° |
| 2026-04-26 01:09 | 40.73046 | -90.72612 | 34005 ft | 412 kts | 266° |
| 2026-04-26 01:09 | 40.72498 | -90.80130 | 34011 ft | 412 kts | 265° |
| 2026-04-26 01:10 | 40.71946 | -90.87647 | 33999 ft | 412 kts | 265° |
| 2026-04-26 01:10 | 40.71389 | -90.95163 | 33988 ft | 412 kts | 265° |
| 2026-04-26 01:11 | 40.70827 | -91.02678 | 33987 ft | 412 kts | 265° |
| 2026-04-26 01:11 | 40.70260 | -91.10194 | 33979 ft | 412 kts | 265° |
| 2026-04-26 01:12 | 40.69689 | -91.17707 | 33974 ft | 412 kts | 265° |
| 2026-04-26 01:12 | 40.69112 | -91.25216 | 33981 ft | 412 kts | 265° |
| 2026-04-26 01:13 | 40.68531 | -91.32729 | 33980 ft | 412 kts | 265° |
| 2026-04-26 01:13 | 40.67944 | -91.40248 | 33983 ft | 413 kts | 265° |
| 2026-04-26 01:14 | 40.67351 | -91.47778 | 33981 ft | 413 kts | 265° |
| 2026-04-26 01:14 | 40.66753 | -91.55305 | 33981 ft | 413 kts | 265° |
| 2026-04-26 01:15 | 40.66150 | -91.62831 | 33981 ft | 413 kts | 265° |
| 2026-04-26 01:15 | 40.65543 | -91.70360 | 33979 ft | 413 kts | 265° |
| 2026-04-26 01:16 | 40.64931 | -91.77879 | 33977 ft | 413 kts | 265° |
| 2026-04-26 01:16 | 40.64313 | -91.85399 | 33971 ft | 413 kts | 265° |
| 2026-04-26 01:17 | 40.63696 | -91.92862 | 33975 ft | 412 kts | 265° |
| 2026-04-26 01:17 | 40.63072 | -92.00349 | 33964 ft | 411 kts | 265° |
| 2026-04-26 01:18 | 40.62445 | -92.07809 | 33975 ft | 409 kts | 265° |
| 2026-04-26 01:18 | 40.61815 | -92.15242 | 33972 ft | 408 kts | 265° |
| 2026-04-26 01:19 | 40.61183 | -92.22643 | 33975 ft | 406 kts | 265° |
| 2026-04-26 01:19 | 40.60548 | -92.30033 | 33973 ft | 406 kts | 265° |
| 2026-04-26 01:20 | 40.59910 | -92.37385 | 33966 ft | 404 kts | 265° |
| 2026-04-26 01:20 | 40.59272 | -92.44702 | 33962 ft | 401 kts | 265° |
| 2026-04-26 01:21 | 40.58632 | -92.51972 | 33968 ft | 399 kts | 265° |
| 2026-04-26 01:21 | 40.57990 | -92.59220 | 33971 ft | 398 kts | 265° |
| 2026-04-26 01:22 | 40.57346 | -92.66439 | 33959 ft | 397 kts | 265° |
| 2026-04-26 01:22 | 40.56698 | -92.73648 | 33954 ft | 397 kts | 264° |
| 2026-04-26 01:23 | 40.56046 | -92.80854 | 33957 ft | 396 kts | 264° |
| 2026-04-26 01:23 | 40.55389 | -92.88056 | 33953 ft | 397 kts | 264° |
| 2026-04-26 01:24 | 40.54729 | -92.95253 | 33957 ft | 397 kts | 264° |
| 2026-04-26 01:24 | 40.54063 | -93.02457 | 33949 ft | 397 kts | 264° |
| 2026-04-26 01:25 | 40.53393 | -93.09661 | 33960 ft | 397 kts | 264° |
| 2026-04-26 01:25 | 40.52717 | -93.16867 | 33948 ft | 397 kts | 264° |
| 2026-04-26 01:26 | 40.52042 | -93.24018 | 33946 ft | 397 kts | 264° |
| 2026-04-26 01:26 | 40.51360 | -93.31201 | 33947 ft | 396 kts | 264° |
| 2026-04-26 01:27 | 40.50675 | -93.38370 | 33941 ft | 395 kts | 264° |
| 2026-04-26 01:27 | 40.49985 | -93.45532 | 33939 ft | 395 kts | 264° |
| 2026-04-26 01:28 | 40.49293 | -93.52678 | 33940 ft | 394 kts | 264° |
| 2026-04-26 01:28 | 40.48595 | -93.59826 | 33935 ft | 394 kts | 264° |
| 2026-04-26 01:29 | 40.47895 | -93.66961 | 33942 ft | 394 kts | 264° |
| 2026-04-26 01:29 | 40.47190 | -93.74098 | 33938 ft | 394 kts | 264° |
| 2026-04-26 01:30 | 40.46480 | -93.81240 | 33935 ft | 394 kts | 263° |
| 2026-04-26 01:30 | 40.45765 | -93.88377 | 33930 ft | 394 kts | 263° |
| 2026-04-26 01:31 | 40.45047 | -93.95512 | 33929 ft | 394 kts | 263° |
| 2026-04-26 01:31 | 40.44324 | -94.02641 | 33928 ft | 394 kts | 263° |
| 2026-04-26 01:32 | 40.43597 | -94.09769 | 33924 ft | 394 kts | 263° |
| 2026-04-26 01:32 | 40.42865 | -94.16900 | 33926 ft | 394 kts | 263° |
| 2026-04-26 01:33 | 40.42130 | -94.24023 | 33913 ft | 394 kts | 263° |
| 2026-04-26 01:33 | 40.41395 | -94.31097 | 33903 ft | 394 kts | 263° |
| 2026-04-26 01:34 | 40.40650 | -94.38219 | 33914 ft | 394 kts | 263° |
| 2026-04-26 01:34 | 40.39901 | -94.45341 | 33901 ft | 394 kts | 263° |
| 2026-04-26 01:35 | 40.39148 | -94.52466 | 33905 ft | 394 kts | 262° |
| 2026-04-26 01:35 | 40.38390 | -94.59583 | 33875 ft | 394 kts | 262° |
| 2026-04-26 01:36 | 40.37629 | -94.66696 | 33890 ft | 394 kts | 262° |
| 2026-04-26 01:37 | 40.36480 | -94.77346 | 33859 ft | 393 kts | 262° |
| 2026-04-26 01:37 | 40.35709 | -94.84438 | 33863 ft | 393 kts | 262° |
| 2026-04-26 01:38 | 40.34935 | -94.91519 | 33863 ft | 392 kts | 262° |
| 2026-04-26 01:38 | 40.34157 | -94.98596 | 33856 ft | 392 kts | 262° |
| 2026-04-26 01:39 | 40.33375 | -95.05669 | 33863 ft | 392 kts | 262° |
| 2026-04-26 01:39 | 40.32587 | -95.12751 | 33861 ft | 393 kts | 261° |
| 2026-04-26 01:40 | 40.31795 | -95.19831 | 33864 ft | 393 kts | 261° |
| 2026-04-26 01:40 | 40.30998 | -95.26919 | 33866 ft | 393 kts | 261° |
| 2026-04-26 01:41 | 40.30331 | -95.32817 | 33862 ft | 394 kts | 261° |
| 2026-04-26 01:41 | 40.29525 | -95.39915 | 33854 ft | 394 kts | 261° |
| 2026-04-26 01:42 | 40.28714 | -95.47011 | 33863 ft | 394 kts | 261° |
| 2026-04-26 01:42 | 40.27897 | -95.54119 | 33854 ft | 395 kts | 261° |
| 2026-04-26 01:43 | 40.27075 | -95.61230 | 33854 ft | 395 kts | 261° |
| 2026-04-26 01:43 | 40.26248 | -95.68344 | 33858 ft | 395 kts | 261° |
| 2026-04-26 01:44 | 40.25416 | -95.75466 | 33855 ft | 396 kts | 260° |
| 2026-04-26 01:44 | 40.24580 | -95.82585 | 33851 ft | 396 kts | 260° |
| 2026-04-26 01:45 | 40.23739 | -95.89704 | 33848 ft | 396 kts | 260° |
| 2026-04-26 01:45 | 40.22895 | -95.96816 | 33848 ft | 395 kts | 260° |
| 2026-04-26 01:46 | 40.22046 | -96.03924 | 33845 ft | 395 kts | 260° |
| 2026-04-26 01:46 | 40.21196 | -96.11026 | 33838 ft | 395 kts | 261° |
| 2026-04-26 01:47 | 40.20339 | -96.18118 | 33849 ft | 394 kts | 261° |
| 2026-04-26 01:47 | 40.20069 | -96.25265 | 33856 ft | 394 kts | 271° |
| 2026-04-26 01:48 | 40.20235 | -96.32392 | 33843 ft | 394 kts | 270° |
| 2026-04-26 01:48 | 40.20383 | -96.39556 | 33856 ft | 394 kts | 270° |
| 2026-04-26 01:49 | 40.20516 | -96.46724 | 33825 ft | 394 kts | 270° |
| 2026-04-26 01:49 | 40.20636 | -96.53885 | 33844 ft | 393 kts | 272° |
| 2026-04-26 01:50 | 40.20756 | -96.61031 | 33894 ft | 393 kts | 272° |
| 2026-04-26 01:50 | 40.20870 | -96.68181 | 33902 ft | 393 kts | 272° |
| 2026-04-26 01:51 | 40.20980 | -96.75321 | 33908 ft | 392 kts | 272° |
| 2026-04-26 01:51 | 40.21084 | -96.82460 | 33905 ft | 392 kts | 272° |
| 2026-04-26 01:52 | 40.21184 | -96.89583 | 33907 ft | 390 kts | 273° |
| 2026-04-26 01:52 | 40.21278 | -96.96649 | 33883 ft | 387 kts | 273° |
| 2026-04-26 01:53 | 40.21368 | -97.03640 | 33874 ft | 383 kts | 273° |
| 2026-04-26 01:53 | 40.21453 | -97.10570 | 33870 ft | 380 kts | 273° |
| 2026-04-26 01:54 | 40.21533 | -97.17460 | 33859 ft | 378 kts | 273° |
| 2026-04-26 01:54 | 40.21609 | -97.24327 | 33859 ft | 378 kts | 273° |
| 2026-04-26 01:55 | 40.21681 | -97.31203 | 33853 ft | 379 kts | 273° |
| 2026-04-26 01:55 | 40.21749 | -97.38101 | 33858 ft | 380 kts | 273° |
| 2026-04-26 01:56 | 40.21813 | -97.44976 | 33853 ft | 381 kts | 273° |
| 2026-04-26 01:56 | 40.21874 | -97.51926 | 33927 ft | 383 kts | 272° |
| 2026-04-26 01:57 | 40.21930 | -97.58898 | 33931 ft | 384 kts | 272° |
| 2026-04-26 01:57 | 40.21982 | -97.65879 | 33929 ft | 384 kts | 272° |
| 2026-04-26 01:58 | 40.22029 | -97.72859 | 33921 ft | 383 kts | 272° |
| 2026-04-26 01:58 | 40.22073 | -97.79810 | 33902 ft | 381 kts | 272° |
| 2026-04-26 01:59 | 40.22112 | -97.86707 | 33891 ft | 378 kts | 272° |
| 2026-04-26 01:59 | 40.22146 | -97.93559 | 33888 ft | 375 kts | 272° |
| 2026-04-26 02:00 | 40.22177 | -98.00372 | 33871 ft | 374 kts | 271° |
| 2026-04-26 02:00 | 40.22204 | -98.07168 | 33896 ft | 374 kts | 271° |
| 2026-04-26 02:01 | 40.22227 | -98.13972 | 33895 ft | 375 kts | 271° |
| 2026-04-26 02:01 | 40.22245 | -98.20804 | 33907 ft | 376 kts | 271° |
| 2026-04-26 02:02 | 40.22260 | -98.27622 | 33910 ft | 378 kts | 271° |
| 2026-04-26 02:02 | 40.22271 | -98.34505 | 33930 ft | 379 kts | 271° |
| 2026-04-26 02:03 | 40.22278 | -98.41420 | 33925 ft | 380 kts | 271° |
| 2026-04-26 02:03 | 40.22280 | -98.48349 | 33927 ft | 381 kts | 271° |
| 2026-04-26 02:04 | 40.22279 | -98.55293 | 33943 ft | 382 kts | 271° |
| 2026-04-26 02:04 | 40.22273 | -98.62243 | 33938 ft | 382 kts | 271° |
| 2026-04-26 02:05 | 40.22263 | -98.69193 | 33952 ft | 382 kts | 271° |
| 2026-04-26 02:05 | 40.22249 | -98.76136 | 33950 ft | 381 kts | 270° |
| 2026-04-26 02:06 | 40.22231 | -98.83071 | 33948 ft | 381 kts | 270° |
| 2026-04-26 02:06 | 40.22208 | -98.89984 | 33964 ft | 380 kts | 270° |
| 2026-04-26 02:07 | 40.22182 | -98.96888 | 33971 ft | 379 kts | 270° |
| 2026-04-26 02:07 | 40.22152 | -99.03777 | 33975 ft | 378 kts | 270° |
| 2026-04-26 02:08 | 40.22117 | -99.10656 | 33986 ft | 378 kts | 270° |
| 2026-04-26 02:08 | 40.22079 | -99.17537 | 33985 ft | 378 kts | 270° |
| 2026-04-26 02:09 | 40.22036 | -99.24418 | 33987 ft | 378 kts | 270° |
| 2026-04-26 02:09 | 40.21990 | -99.31258 | 33985 ft | 379 kts | 270° |
| 2026-04-26 02:10 | 40.21940 | -99.38147 | 33982 ft | 379 kts | 270° |
| 2026-04-26 02:10 | 40.21885 | -99.45045 | 33981 ft | 379 kts | 270° |
| 2026-04-26 02:11 | 40.21826 | -99.51954 | 33978 ft | 380 kts | 269° |
| 2026-04-26 02:11 | 40.21762 | -99.58872 | 33974 ft | 381 kts | 269° |
| 2026-04-26 02:12 | 40.21695 | -99.65796 | 33979 ft | 381 kts | 269° |
| 2026-04-26 02:12 | 40.21623 | -99.72729 | 33979 ft | 381 kts | 269° |
| 2026-04-26 02:13 | 40.21547 | -99.79664 | 33978 ft | 381 kts | 269° |
| 2026-04-26 02:13 | 40.21468 | -99.86603 | 33985 ft | 382 kts | 269° |
| 2026-04-26 02:14 | 40.21383 | -99.93545 | 33985 ft | 382 kts | 269° |
| 2026-04-26 02:14 | 40.21295 | -100.00498 | 33988 ft | 382 kts | 269° |
| 2026-04-26 02:15 | 40.21202 | -100.07456 | 33985 ft | 383 kts | 269° |
| 2026-04-26 02:15 | 40.21105 | -100.14413 | 33990 ft | 383 kts | 269° |
| 2026-04-26 02:16 | 40.21004 | -100.21369 | 33987 ft | 383 kts | 269° |
| 2026-04-26 02:16 | 40.20899 | -100.28335 | 33989 ft | 383 kts | 269° |
| 2026-04-26 02:17 | 40.20790 | -100.35295 | 33989 ft | 383 kts | 269° |
| 2026-04-26 02:17 | 40.20676 | -100.42260 | 33997 ft | 383 kts | 269° |
| 2026-04-26 02:18 | 40.20559 | -100.49226 | 34002 ft | 383 kts | 269° |
| 2026-04-26 02:18 | 40.20438 | -100.56196 | 34000 ft | 383 kts | 269° |
| 2026-04-26 02:19 | 40.20265 | -100.63164 | 33997 ft | 383 kts | 267° |
| 2026-04-26 02:19 | 40.19944 | -100.70123 | 34001 ft | 383 kts | 266° |
| 2026-04-26 02:20 | 40.19603 | -100.77079 | 33999 ft | 383 kts | 266° |
| 2026-04-26 02:20 | 40.19271 | -100.84042 | 33992 ft | 384 kts | 266° |
| 2026-04-26 02:21 | 40.18943 | -100.91007 | 33993 ft | 384 kts | 266° |
| 2026-04-26 02:21 | 40.18614 | -100.97969 | 33992 ft | 384 kts | 266° |
| 2026-04-26 02:22 | 40.18281 | -101.04933 | 33997 ft | 384 kts | 266° |
| 2026-04-26 02:22 | 40.17945 | -101.11894 | 33991 ft | 384 kts | 266° |
| 2026-04-26 02:23 | 40.17605 | -101.18857 | 33989 ft | 384 kts | 266° |
| 2026-04-26 02:23 | 40.17260 | -101.25814 | 33992 ft | 384 kts | 266° |
| 2026-04-26 02:24 | 40.16911 | -101.32776 | 33998 ft | 384 kts | 266° |
| 2026-04-26 02:24 | 40.16558 | -101.39734 | 33998 ft | 384 kts | 266° |
| 2026-04-26 02:25 | 40.16204 | -101.46642 | 34002 ft | 384 kts | 266° |
| 2026-04-26 02:25 | 40.15842 | -101.53602 | 34000 ft | 383 kts | 266° |
| 2026-04-26 02:26 | 40.15477 | -101.60550 | 34008 ft | 383 kts | 266° |
| 2026-04-26 02:26 | 40.15108 | -101.67500 | 34007 ft | 383 kts | 266° |
| 2026-04-26 02:27 | 40.14734 | -101.74450 | 34011 ft | 383 kts | 266° |
| 2026-04-26 02:27 | 40.14356 | -101.81396 | 34008 ft | 383 kts | 266° |
| 2026-04-26 02:28 | 40.13975 | -101.88335 | 34004 ft | 383 kts | 266° |
| 2026-04-26 02:28 | 40.13590 | -101.95273 | 34011 ft | 383 kts | 266° |
| 2026-04-26 02:29 | 40.13201 | -102.02204 | 34012 ft | 382 kts | 266° |
| 2026-04-26 02:29 | 40.12807 | -102.09132 | 34012 ft | 382 kts | 266° |
| 2026-04-26 02:30 | 40.12410 | -102.16062 | 34010 ft | 382 kts | 266° |
| 2026-04-26 02:30 | 40.12009 | -102.22981 | 34015 ft | 382 kts | 266° |
| 2026-04-26 02:31 | 40.11672 | -102.28733 | 34012 ft | 382 kts | 266° |
| 2026-04-26 02:31 | 40.11264 | -102.35643 | 34010 ft | 381 kts | 266° |
| 2026-04-26 02:32 | 40.10852 | -102.42544 | 34018 ft | 381 kts | 265° |
| 2026-04-26 02:32 | 40.10436 | -102.49447 | 34007 ft | 381 kts | 265° |
| 2026-04-26 02:33 | 40.10016 | -102.56341 | 34009 ft | 381 kts | 265° |
| 2026-04-26 02:33 | 40.09593 | -102.63230 | 34009 ft | 380 kts | 265° |
| 2026-04-26 02:34 | 40.09166 | -102.70111 | 34008 ft | 380 kts | 265° |
| 2026-04-26 02:34 | 40.08734 | -102.76993 | 34010 ft | 380 kts | 265° |
| 2026-04-26 02:35 | 40.08299 | -102.83871 | 34008 ft | 380 kts | 265° |
| 2026-04-26 02:35 | 40.07861 | -102.90742 | 34010 ft | 379 kts | 265° |
| 2026-04-26 02:36 | 40.07418 | -102.97604 | 34012 ft | 379 kts | 265° |
| 2026-04-26 02:36 | 40.06972 | -103.04453 | 33999 ft | 379 kts | 265° |
| 2026-04-26 02:37 | 40.06523 | -103.11299 | 33998 ft | 378 kts | 265° |
| 2026-04-26 02:37 | 40.06073 | -103.18087 | 34005 ft | 378 kts | 265° |
| 2026-04-26 02:38 | 40.05617 | -103.24914 | 33995 ft | 377 kts | 265° |
| 2026-04-26 02:38 | 40.05158 | -103.31723 | 33994 ft | 376 kts | 265° |
| 2026-04-26 02:39 | 40.04695 | -103.38517 | 33980 ft | 376 kts | 265° |
| 2026-04-26 02:39 | 40.04229 | -103.45305 | 33981 ft | 375 kts | 265° |
| 2026-04-26 02:40 | 40.03761 | -103.52081 | 33967 ft | 375 kts | 264° |
| 2026-04-26 02:40 | 40.03288 | -103.58857 | 33966 ft | 375 kts | 264° |
| 2026-04-26 02:41 | 40.02810 | -103.65637 | 33954 ft | 375 kts | 264° |
| 2026-04-26 02:41 | 40.02329 | -103.72408 | 33957 ft | 375 kts | 264° |
| 2026-04-26 02:42 | 40.01844 | -103.79189 | 33943 ft | 375 kts | 264° |
| 2026-04-26 02:42 | 40.01355 | -103.85965 | 33943 ft | 376 kts | 263° |
| 2026-04-26 02:43 | 40.00611 | -103.96149 | 33941 ft | 376 kts | 263° |
| 2026-04-26 02:43 | 40.00111 | -104.02946 | 33933 ft | 377 kts | 263° |
| 2026-04-26 02:44 | 39.99605 | -104.09753 | 33932 ft | 377 kts | 263° |
| 2026-04-26 02:44 | 39.99096 | -104.16564 | 33930 ft | 378 kts | 263° |
| 2026-04-26 02:45 | 39.98581 | -104.23385 | 33937 ft | 378 kts | 263° |
| 2026-04-26 02:45 | 39.98062 | -104.30208 | 33943 ft | 379 kts | 263° |
| 2026-04-26 02:46 | 39.97538 | -104.37038 | 33948 ft | 379 kts | 263° |
| 2026-04-26 02:46 | 39.97010 | -104.43878 | 33953 ft | 379 kts | 263° |
| 2026-04-26 02:47 | 39.96477 | -104.50721 | 33948 ft | 380 kts | 263° |
| 2026-04-26 02:47 | 39.95940 | -104.57569 | 33960 ft | 380 kts | 263° |
| 2026-04-26 02:48 | 39.95398 | -104.64417 | 33964 ft | 380 kts | 263° |
| 2026-04-26 02:48 | 39.94853 | -104.71264 | 33965 ft | 380 kts | 263° |
| 2026-04-26 02:49 | 39.94303 | -104.78115 | 33956 ft | 380 kts | 263° |
| 2026-04-26 02:49 | 39.93753 | -104.84915 | 33949 ft | 380 kts | 263° |
| 2026-04-26 02:50 | 39.93192 | -104.91800 | 33942 ft | 379 kts | 263° |
| 2026-04-26 02:50 | 39.92636 | -104.98585 | 33947 ft | 379 kts | 263° |
| 2026-04-26 02:51 | 39.92073 | -105.05400 | 33987 ft | 378 kts | 263° |
| 2026-04-26 02:51 | 39.91506 | -105.12207 | 33984 ft | 377 kts | 263° |
| 2026-04-26 02:52 | 39.90936 | -105.18995 | 33979 ft | 377 kts | 263° |
| 2026-04-26 02:52 | 39.90364 | -105.25770 | 33977 ft | 376 kts | 262° |
| 2026-04-26 02:53 | 39.89789 | -105.32534 | 33976 ft | 375 kts | 262° |
| 2026-04-26 02:53 | 39.89212 | -105.39293 | 33935 ft | 375 kts | 262° |
| 2026-04-26 02:54 | 39.88628 | -105.46036 | 33914 ft | 375 kts | 262° |
| 2026-04-26 02:54 | 39.88043 | -105.52776 | 33882 ft | 375 kts | 262° |
| 2026-04-26 02:55 | 39.87455 | -105.59510 | 33864 ft | 374 kts | 262° |
| 2026-04-26 02:55 | 39.86864 | -105.66235 | 33792 ft | 374 kts | 261° |
| 2026-04-26 02:56 | 39.86267 | -105.72967 | 33801 ft | 375 kts | 261° |
| 2026-04-26 02:56 | 39.85662 | -105.79738 | 33798 ft | 378 kts | 261° |
| 2026-04-26 02:57 | 39.85049 | -105.86565 | 33794 ft | 381 kts | 261° |
| 2026-04-26 02:57 | 39.84429 | -105.93422 | 33750 ft | 382 kts | 261° |
| 2026-04-26 02:58 | 39.83804 | -106.00281 | 33748 ft | 383 kts | 261° |
| 2026-04-26 02:58 | 39.83174 | -106.07164 | 33741 ft | 384 kts | 261° |
| 2026-04-26 02:59 | 39.82539 | -106.14056 | 33755 ft | 384 kts | 261° |
| 2026-04-26 02:59 | 39.81896 | -106.20978 | 33741 ft | 386 kts | 261° |
| 2026-04-26 03:00 | 39.81255 | -106.27850 | 33741 ft | 385 kts | 261° |
| 2026-04-26 03:00 | 39.80606 | -106.34750 | 33753 ft | 384 kts | 261° |
| 2026-04-26 03:01 | 39.79954 | -106.41637 | 33747 ft | 384 kts | 261° |
| 2026-04-26 03:01 | 39.79299 | -106.48527 | 33740 ft | 384 kts | 261° |
| 2026-04-26 03:02 | 39.78629 | -106.55417 | 33733 ft | 384 kts | 260° |
| 2026-04-26 03:02 | 39.77889 | -106.62287 | 33727 ft | 383 kts | 260° |
| 2026-04-26 03:03 | 39.77131 | -106.69147 | 33722 ft | 383 kts | 260° |
| 2026-04-26 03:03 | 39.76376 | -106.75996 | 33744 ft | 382 kts | 260° |
| 2026-04-26 03:04 | 39.75622 | -106.82838 | 33720 ft | 382 kts | 260° |
| 2026-04-26 03:04 | 39.74865 | -106.89673 | 33880 ft | 382 kts | 260° |
| 2026-04-26 03:05 | 39.74106 | -106.96506 | 33892 ft | 382 kts | 260° |
| 2026-04-26 03:05 | 39.73341 | -107.03347 | 33866 ft | 382 kts | 259° |
| 2026-04-26 03:06 | 39.72575 | -107.10166 | 33865 ft | 381 kts | 259° |
| 2026-04-26 03:06 | 39.71812 | -107.16921 | 33830 ft | 380 kts | 259° |
| 2026-04-26 03:07 | 39.71040 | -107.23717 | 33799 ft | 380 kts | 259° |
| 2026-04-26 03:07 | 39.70263 | -107.30520 | 33751 ft | 381 kts | 259° |
| 2026-04-26 03:08 | 39.69482 | -107.37321 | 33742 ft | 381 kts | 259° |
| 2026-04-26 03:08 | 39.68696 | -107.44132 | 33759 ft | 382 kts | 259° |
| 2026-04-26 03:09 | 39.67904 | -107.50955 | 33781 ft | 383 kts | 259° |
| 2026-04-26 03:09 | 39.67105 | -107.57802 | 33782 ft | 384 kts | 259° |
| 2026-04-26 03:10 | 39.66293 | -107.64649 | 33801 ft | 384 kts | 258° |
| 2026-04-26 03:10 | 39.65475 | -107.71494 | 33815 ft | 384 kts | 259° |
| 2026-04-26 03:11 | 39.64678 | -107.78340 | 33824 ft | 384 kts | 259° |
| 2026-04-26 03:11 | 39.64274 | -107.81770 | 33669 ft | 384 kts | 259° |
| 2026-04-26 03:11 | 39.63868 | -107.85188 | 33680 ft | 384 kts | 259° |
| 2026-04-26 03:12 | 39.63052 | -107.92020 | 33655 ft | 382 kts | 258° |
| 2026-04-26 03:12 | 39.62233 | -107.98824 | 33663 ft | 382 kts | 259° |
| 2026-04-26 03:13 | 39.61409 | -108.05635 | 33660 ft | 382 kts | 258° |
| 2026-04-26 03:13 | 39.60582 | -108.12445 | 33658 ft | 382 kts | 258° |
| 2026-04-26 03:14 | 39.59750 | -108.19262 | 33669 ft | 383 kts | 258° |
| 2026-04-26 03:14 | 39.58911 | -108.26089 | 33666 ft | 384 kts | 258° |
| 2026-04-26 03:15 | 39.58068 | -108.32919 | 33660 ft | 383 kts | 258° |
| 2026-04-26 03:15 | 39.57232 | -108.39696 | 33673 ft | 382 kts | 258° |
| 2026-04-26 03:16 | 39.56376 | -108.46503 | 33658 ft | 383 kts | 258° |
| 2026-04-26 03:16 | 39.55520 | -108.53327 | 33666 ft | 384 kts | 258° |
| 2026-04-26 03:17 | 39.54658 | -108.60170 | 33674 ft | 385 kts | 258° |
| 2026-04-26 03:17 | 39.53795 | -108.67021 | 33664 ft | 386 kts | 258° |
| 2026-04-26 03:18 | 39.52924 | -108.73874 | 33674 ft | 385 kts | 258° |
| 2026-04-26 03:18 | 39.52045 | -108.80732 | 33660 ft | 386 kts | 258° |
| 2026-04-26 03:19 | 39.51166 | -108.87584 | 33674 ft | 386 kts | 258° |
| 2026-04-26 03:19 | 39.50282 | -108.94443 | 33669 ft | 386 kts | 258° |
| 2026-04-26 03:20 | 39.49388 | -109.01311 | 33660 ft | 387 kts | 258° |
| 2026-04-26 03:20 | 39.48648 | -109.07016 | 33664 ft | 386 kts | 258° |
| 2026-04-26 03:21 | 39.47609 | -109.14967 | 33664 ft | 385 kts | 258° |
| 2026-04-26 03:21 | 39.46711 | -109.21784 | 33671 ft | 384 kts | 258° |
| 2026-04-26 03:22 | 39.45811 | -109.28602 | 33681 ft | 385 kts | 258° |
| 2026-04-26 03:22 | 39.45055 | -109.34316 | 33683 ft | 385 kts | 258° |
| 2026-04-26 03:23 | 39.44146 | -109.41146 | 33691 ft | 386 kts | 258° |
| 2026-04-26 03:23 | 39.43235 | -109.47941 | 33690 ft | 387 kts | 257° |
| 2026-04-26 03:24 | 39.42313 | -109.54804 | 33697 ft | 387 kts | 258° |
| 2026-04-26 03:24 | 39.41386 | -109.61668 | 33701 ft | 388 kts | 257° |
| 2026-04-26 03:25 | 39.40457 | -109.68543 | 33692 ft | 388 kts | 258° |
| 2026-04-26 03:25 | 39.39518 | -109.75418 | 33704 ft | 388 kts | 257° |
| 2026-04-26 03:26 | 39.38573 | -109.82304 | 33704 ft | 389 kts | 257° |
| 2026-04-26 03:26 | 39.37626 | -109.89193 | 33716 ft | 390 kts | 257° |
| 2026-04-26 03:27 | 39.36672 | -109.96103 | 33707 ft | 391 kts | 257° |
| 2026-04-26 03:27 | 39.35733 | -110.03043 | 33700 ft | 392 kts | 258° |
| 2026-04-26 03:28 | 39.34828 | -110.09975 | 33691 ft | 391 kts | 258° |
| 2026-04-26 03:28 | 39.33894 | -110.16881 | 33705 ft | 390 kts | 257° |
| 2026-04-26 03:29 | 39.32956 | -110.23776 | 33698 ft | 389 kts | 257° |
| 2026-04-26 03:29 | 39.32020 | -110.30659 | 33716 ft | 389 kts | 257° |
| 2026-04-26 03:30 | 39.31081 | -110.37552 | 33693 ft | 390 kts | 257° |
| 2026-04-26 03:30 | 39.30137 | -110.44443 | 33687 ft | 390 kts | 257° |
| 2026-04-26 03:31 | 39.29190 | -110.51334 | 33693 ft | 390 kts | 257° |
| 2026-04-26 03:31 | 39.28239 | -110.58219 | 33693 ft | 389 kts | 257° |
| 2026-04-26 03:32 | 39.27284 | -110.65098 | 33692 ft | 389 kts | 257° |
| 2026-04-26 03:32 | 39.26325 | -110.71974 | 33690 ft | 390 kts | 257° |
| 2026-04-26 03:33 | 39.25362 | -110.78857 | 33715 ft | 390 kts | 257° |
| 2026-04-26 03:33 | 39.24394 | -110.85740 | 33702 ft | 390 kts | 257° |
| 2026-04-26 03:34 | 39.23421 | -110.92633 | 33733 ft | 391 kts | 257° |
| 2026-04-26 03:34 | 39.22441 | -110.99529 | 33730 ft | 391 kts | 256° |
| 2026-04-26 03:35 | 39.21458 | -111.06420 | 33738 ft | 391 kts | 256° |
| 2026-04-26 03:35 | 39.20471 | -111.13314 | 33735 ft | 391 kts | 257° |
| 2026-04-26 03:36 | 39.19487 | -111.20204 | 33752 ft | 391 kts | 256° |
| 2026-04-26 03:36 | 39.18489 | -111.27094 | 33762 ft | 391 kts | 256° |
| 2026-04-26 03:37 | 39.17486 | -111.33997 | 33749 ft | 392 kts | 256° |
| 2026-04-26 03:37 | 39.16482 | -111.40892 | 33751 ft | 391 kts | 256° |
| 2026-04-26 03:38 | 39.15476 | -111.47773 | 33748 ft | 391 kts | 256° |
| 2026-04-26 03:38 | 39.14466 | -111.54648 | 33742 ft | 391 kts | 256° |
| 2026-04-26 03:39 | 39.13450 | -111.61536 | 33744 ft | 391 kts | 256° |
| 2026-04-26 03:39 | 39.12429 | -111.68425 | 33738 ft | 392 kts | 256° |
| 2026-04-26 03:40 | 39.11405 | -111.75311 | 33742 ft | 391 kts | 256° |
| 2026-04-26 03:40 | 39.10385 | -111.82144 | 33728 ft | 391 kts | 256° |
| 2026-04-26 03:41 | 39.09354 | -111.89015 | 33730 ft | 391 kts | 255° |
| 2026-04-26 03:41 | 39.08319 | -111.95882 | 33729 ft | 391 kts | 255° |
| 2026-04-26 03:42 | 39.07282 | -112.02742 | 33765 ft | 390 kts | 255° |
| 2026-04-26 03:42 | 39.06239 | -112.09606 | 33747 ft | 391 kts | 255° |
| 2026-04-26 03:43 | 39.05192 | -112.16475 | 33786 ft | 392 kts | 255° |
| 2026-04-26 03:43 | 39.04137 | -112.23354 | 33790 ft | 392 kts | 255° |
| 2026-04-26 03:44 | 39.03080 | -112.30238 | 33803 ft | 392 kts | 255° |
| 2026-04-26 03:44 | 39.02018 | -112.37121 | 33806 ft | 392 kts | 255° |
| 2026-04-26 03:45 | 39.00950 | -112.43996 | 33804 ft | 392 kts | 255° |
| 2026-04-26 03:45 | 38.99886 | -112.50815 | 33677 ft | 392 kts | 255° |
| 2026-04-26 03:46 | 38.98813 | -112.57674 | 33682 ft | 391 kts | 255° |
| 2026-04-26 03:47 | 38.97196 | -112.67955 | 33668 ft | 391 kts | 255° |
| 2026-04-26 03:47 | 38.96113 | -112.74805 | 33659 ft | 391 kts | 255° |
| 2026-04-26 03:48 | 38.95027 | -112.81654 | 33671 ft | 391 kts | 255° |
| 2026-04-26 03:48 | 38.93936 | -112.88500 | 33654 ft | 391 kts | 254° |
| 2026-04-26 03:49 | 38.92840 | -112.95352 | 33656 ft | 391 kts | 254° |
| 2026-04-26 03:49 | 38.91741 | -113.02198 | 33665 ft | 392 kts | 254° |
| 2026-04-26 03:50 | 38.90634 | -113.09062 | 33649 ft | 393 kts | 254° |
| 2026-04-26 03:50 | 38.89524 | -113.15924 | 33663 ft | 393 kts | 254° |
| 2026-04-26 03:51 | 38.88409 | -113.22792 | 33665 ft | 393 kts | 254° |
| 2026-04-26 03:51 | 38.87289 | -113.29660 | 33670 ft | 393 kts | 254° |
| 2026-04-26 03:52 | 38.86165 | -113.36522 | 33674 ft | 393 kts | 254° |
| 2026-04-26 03:52 | 38.85037 | -113.43388 | 33682 ft | 393 kts | 254° |
| 2026-04-26 03:53 | 38.83904 | -113.50255 | 33673 ft | 394 kts | 254° |
| 2026-04-26 03:53 | 38.82765 | -113.57135 | 33665 ft | 395 kts | 254° |
| 2026-04-26 03:54 | 38.81618 | -113.64028 | 33659 ft | 395 kts | 254° |
| 2026-04-26 03:54 | 38.80469 | -113.70914 | 33666 ft | 395 kts | 254° |
| 2026-04-26 03:55 | 38.79319 | -113.77789 | 33679 ft | 394 kts | 253° |
| 2026-04-26 03:55 | 38.78170 | -113.84619 | 33676 ft | 395 kts | 253° |
| 2026-04-26 03:56 | 38.77006 | -113.91503 | 33680 ft | 395 kts | 253° |
| 2026-04-26 03:56 | 38.75837 | -113.98390 | 33672 ft | 396 kts | 253° |
| 2026-04-26 03:57 | 38.74665 | -114.05275 | 33688 ft | 395 kts | 253° |
| 2026-04-26 03:57 | 38.73490 | -114.12153 | 33678 ft | 395 kts | 253° |
| 2026-04-26 03:58 | 38.72311 | -114.19021 | 33701 ft | 395 kts | 253° |
| 2026-04-26 03:58 | 38.71127 | -114.25902 | 33686 ft | 396 kts | 253° |
| 2026-04-26 03:59 | 38.69940 | -114.32779 | 33694 ft | 396 kts | 253° |
| 2026-04-26 03:59 | 38.68747 | -114.39657 | 33714 ft | 396 kts | 253° |
| 2026-04-26 04:00 | 38.67551 | -114.46530 | 33705 ft | 396 kts | 253° |
| 2026-04-26 04:00 | 38.66350 | -114.53404 | 33702 ft | 396 kts | 253° |
| 2026-04-26 04:01 | 38.65144 | -114.60284 | 33698 ft | 397 kts | 253° |
| 2026-04-26 04:01 | 38.63941 | -114.67119 | 33696 ft | 396 kts | 253° |
| 2026-04-26 04:02 | 38.62729 | -114.73988 | 33714 ft | 396 kts | 253° |
| 2026-04-26 04:02 | 38.61510 | -114.80863 | 33697 ft | 397 kts | 253° |
| 2026-04-26 04:03 | 38.60287 | -114.87737 | 33712 ft | 397 kts | 253° |
| 2026-04-26 04:03 | 38.59060 | -114.94613 | 33695 ft | 396 kts | 253° |
| 2026-04-26 04:04 | 38.57830 | -115.01481 | 33704 ft | 397 kts | 253° |
| 2026-04-26 04:04 | 38.56592 | -115.08366 | 33691 ft | 398 kts | 253° |
| 2026-04-26 04:05 | 38.55348 | -115.15252 | 33696 ft | 398 kts | 253° |
| 2026-04-26 04:05 | 38.54099 | -115.22135 | 33695 ft | 398 kts | 253° |
| 2026-04-26 04:06 | 38.52847 | -115.29017 | 33690 ft | 398 kts | 253° |
| 2026-04-26 04:06 | 38.51590 | -115.35905 | 33696 ft | 399 kts | 253° |
| 2026-04-26 04:07 | 38.50326 | -115.42804 | 33693 ft | 399 kts | 253° |
| 2026-04-26 04:07 | 38.49055 | -115.49719 | 33697 ft | 401 kts | 253° |
| 2026-04-26 04:08 | 38.47776 | -115.56650 | 33690 ft | 402 kts | 253° |
| 2026-04-26 04:08 | 38.46492 | -115.63591 | 33690 ft | 402 kts | 253° |
| 2026-04-26 04:09 | 38.45201 | -115.70542 | 33691 ft | 403 kts | 252° |
| 2026-04-26 04:09 | 38.43901 | -115.77514 | 33696 ft | 405 kts | 252° |
| 2026-04-26 04:10 | 38.42593 | -115.84502 | 33695 ft | 406 kts | 252° |
| 2026-04-26 04:10 | 38.41278 | -115.91511 | 33702 ft | 406 kts | 252° |
| 2026-04-26 04:11 | 38.40179 | -115.97345 | 33694 ft | 408 kts | 252° |
| 2026-04-26 04:11 | 38.38850 | -116.04381 | 33701 ft | 409 kts | 252° |
| 2026-04-26 04:12 | 38.37513 | -116.11435 | 33699 ft | 410 kts | 252° |
| 2026-04-26 04:12 | 38.36169 | -116.18499 | 33712 ft | 411 kts | 252° |
| 2026-04-26 04:13 | 38.34818 | -116.25578 | 33698 ft | 411 kts | 252° |
| 2026-04-26 04:13 | 38.33462 | -116.32660 | 33711 ft | 412 kts | 252° |
| 2026-04-26 04:14 | 38.31975 | -116.39701 | 33715 ft | 412 kts | 250° |
| 2026-04-26 04:14 | 38.30367 | -116.46702 | 33718 ft | 412 kts | 250° |
| 2026-04-26 04:15 | 38.28771 | -116.53671 | 33720 ft | 413 kts | 250° |
| 2026-04-26 04:15 | 38.27172 | -116.60711 | 33718 ft | 414 kts | 250° |
| 2026-04-26 04:16 | 38.25564 | -116.67805 | 33723 ft | 415 kts | 250° |
| 2026-04-26 04:16 | 38.23972 | -116.74817 | 33727 ft | 415 kts | 250° |
| 2026-04-26 04:17 | 38.22363 | -116.81875 | 33747 ft | 416 kts | 250° |
| 2026-04-26 04:17 | 38.20748 | -116.88941 | 33759 ft | 416 kts | 250° |
| 2026-04-26 04:18 | 38.19126 | -116.96014 | 33766 ft | 417 kts | 250° |
| 2026-04-26 04:18 | 38.17496 | -117.03100 | 33772 ft | 418 kts | 250° |
| 2026-04-26 04:19 | 38.15859 | -117.10193 | 33782 ft | 418 kts | 250° |
| 2026-04-26 04:19 | 38.14219 | -117.17284 | 33779 ft | 418 kts | 250° |
| 2026-04-26 04:20 | 38.12574 | -117.24376 | 33688 ft | 419 kts | 250° |
| 2026-04-26 04:20 | 38.10923 | -117.31489 | 33682 ft | 420 kts | 251° |
| 2026-04-26 04:21 | 38.09280 | -117.38607 | 33676 ft | 420 kts | 251° |
| 2026-04-26 04:21 | 38.07633 | -117.45730 | 33676 ft | 421 kts | 251° |
| 2026-04-26 04:22 | 38.05978 | -117.52857 | 33674 ft | 421 kts | 251° |
| 2026-04-26 04:22 | 38.04321 | -117.59975 | 33681 ft | 421 kts | 251° |
| 2026-04-26 04:23 | 38.02667 | -117.67058 | 33681 ft | 422 kts | 251° |
| 2026-04-26 04:23 | 38.00996 | -117.74188 | 33689 ft | 422 kts | 250° |
| 2026-04-26 04:24 | 37.99740 | -117.81475 | 33691 ft | 425 kts | 259° |
| 2026-04-26 04:24 | 37.99008 | -117.88928 | 33683 ft | 426 kts | 260° |
| 2026-04-26 04:25 | 37.98279 | -117.96373 | 33692 ft | 426 kts | 259° |
| 2026-04-26 04:25 | 37.97512 | -118.03807 | 33691 ft | 425 kts | 259° |
| 2026-04-26 04:26 | 37.96721 | -118.11244 | 33720 ft | 426 kts | 259° |
| 2026-04-26 04:26 | 37.95921 | -118.18698 | 33699 ft | 428 kts | 259° |
| 2026-04-26 04:27 | 37.95114 | -118.26170 | 33709 ft | 428 kts | 259° |
| 2026-04-26 04:27 | 37.94303 | -118.33653 | 33707 ft | 429 kts | 259° |
| 2026-04-26 04:28 | 37.93485 | -118.41146 | 33708 ft | 430 kts | 259° |
| 2026-04-26 04:28 | 37.92661 | -118.48653 | 33722 ft | 431 kts | 259° |
| 2026-04-26 04:29 | 37.91831 | -118.56168 | 33724 ft | 431 kts | 259° |
| 2026-04-26 04:29 | 37.90995 | -118.63692 | 33734 ft | 431 kts | 259° |
| 2026-04-26 04:30 | 37.90157 | -118.71201 | 33759 ft | 431 kts | 259° |
| 2026-04-26 04:30 | 37.89312 | -118.78716 | 33771 ft | 431 kts | 259° |
| 2026-04-26 04:31 | 37.88461 | -118.86225 | 33773 ft | 431 kts | 259° |
| 2026-04-26 04:31 | 37.87605 | -118.93739 | 33783 ft | 431 kts | 259° |
| 2026-04-26 04:32 | 37.86745 | -119.01249 | 33777 ft | 432 kts | 259° |
| 2026-04-26 04:32 | 37.85879 | -119.08770 | 33774 ft | 432 kts | 259° |
| 2026-04-26 04:33 | 37.85007 | -119.16303 | 33808 ft | 433 kts | 259° |
| 2026-04-26 04:33 | 37.84129 | -119.23842 | 33807 ft | 433 kts | 259° |
| 2026-04-26 04:34 | 37.83245 | -119.31390 | 33840 ft | 434 kts | 259° |
| 2026-04-26 04:34 | 37.82361 | -119.38899 | 33859 ft | 435 kts | 259° |
| 2026-04-26 04:35 | 37.81465 | -119.46467 | 33856 ft | 436 kts | 259° |
| 2026-04-26 04:35 | 37.80561 | -119.54051 | 33898 ft | 436 kts | 259° |
| 2026-04-26 04:36 | 37.79653 | -119.61632 | 33902 ft | 436 kts | 259° |
| 2026-04-26 04:36 | 37.78740 | -119.69214 | 33902 ft | 436 kts | 259° |
| 2026-04-26 04:37 | 37.77833 | -119.76721 | 33897 ft | 424 kts | 259° |
| 2026-04-26 04:37 | 37.76957 | -119.83934 | 33905 ft | 401 kts | 259° |
| 2026-04-26 04:37 | 37.76540 | -119.87360 | 33891 ft | 389 kts | 259° |
| 2026-04-26 04:38 | 37.76134 | -119.90679 | 33896 ft | 376 kts | 259° |
| 2026-04-26 04:38 | 37.75339 | -119.97123 | 33919 ft | 375 kts | 259° |
| 2026-04-26 04:39 | 37.74512 | -120.03783 | 33926 ft | 390 kts | 259° |
| 2026-04-26 04:39 | 37.73670 | -120.10564 | 33913 ft | 390 kts | 259° |
| 2026-04-26 04:40 | 37.72829 | -120.17319 | 33898 ft | 388 kts | 259° |
| 2026-04-26 04:40 | 37.71989 | -120.24022 | 33893 ft | 385 kts | 259° |
| 2026-04-26 04:41 | 37.71153 | -120.30671 | 33900 ft | 382 kts | 259° |
| 2026-04-26 04:41 | 37.70319 | -120.37269 | 33903 ft | 380 kts | 259° |
| 2026-04-26 04:42 | 37.69508 | -120.43806 | 33908 ft | 379 kts | 261° |
| 2026-04-26 04:42 | 37.68748 | -120.50397 | 33910 ft | 380 kts | 261° |
| 2026-04-26 04:43 | 37.67984 | -120.57012 | 33907 ft | 381 kts | 261° |
| 2026-04-26 04:43 | 37.67208 | -120.63641 | 33908 ft | 382 kts | 261° |
| 2026-04-26 04:44 | 37.66425 | -120.70287 | 33897 ft | 383 kts | 261° |
| 2026-04-26 04:44 | 37.65634 | -120.76950 | 33891 ft | 384 kts | 260° |
| 2026-04-26 04:45 | 37.64832 | -120.83612 | 33902 ft | 384 kts | 260° |
| 2026-04-26 04:45 | 37.64029 | -120.90268 | 33889 ft | 384 kts | 260° |
| 2026-04-26 04:46 | 37.63221 | -120.96912 | 33928 ft | 383 kts | 261° |
| 2026-04-26 04:46 | 37.62345 | -121.03527 | 33910 ft | 382 kts | 260° |
| 2026-04-26 04:47 | 37.61455 | -121.10112 | 33905 ft | 380 kts | 260° |
| 2026-04-26 04:47 | 37.60571 | -121.16680 | 33915 ft | 379 kts | 260° |
| 2026-04-26 04:48 | 37.59246 | -121.26514 | 33905 ft | 379 kts | 261° |
| 2026-04-26 04:48 | 37.58462 | -121.33096 | 33903 ft | 380 kts | 262° |
| 2026-04-26 04:49 | 37.57722 | -121.39694 | 33914 ft | 381 kts | 262° |
| 2026-04-26 04:49 | 37.56965 | -121.46308 | 33903 ft | 382 kts | 262° |
| 2026-04-26 04:50 | 37.56196 | -121.52937 | 33909 ft | 382 kts | 262° |
| 2026-04-26 04:50 | 37.55428 | -121.59511 | 33903 ft | 381 kts | 262° |
| 2026-04-26 04:51 | 37.54376 | -121.66064 | 33918 ft | 378 kts | 253° |
| 2026-04-26 04:51 | 37.52764 | -121.72307 | 33920 ft | 376 kts | 253° |
| 2026-04-26 04:52 | 37.51222 | -121.78597 | 33917 ft | 376 kts | 253° |
| 2026-04-26 04:52 | 37.49717 | -121.84890 | 33906 ft | 376 kts | 254° |
| 2026-04-26 04:53 | 37.49244 | -121.88108 | 33916 ft | 375 kts | 271° |
| 2026-04-26 04:53 | 37.49551 | -121.91358 | 33952 ft | 374 kts | 280° |
| 2026-04-26 04:53 | 37.50585 | -121.97795 | 33939 ft | 376 kts | 281° |
| 2026-04-26 04:54 | 37.51617 | -122.04247 | 33932 ft | 376 kts | 281° |
| 2026-04-26 04:54 | 37.52609 | -122.10734 | 33936 ft | 377 kts | 281° |
| 2026-04-26 04:55 | 37.53589 | -122.17219 | 33936 ft | 377 kts | 282° |
| 2026-04-26 04:55 | 37.54509 | -122.20293 | 33929 ft | 376 kts | 301° |
| 2026-04-26 04:55 | 37.55893 | -122.23092 | 33935 ft | 377 kts | 301° |
| 2026-04-26 04:56 | 37.58479 | -122.28831 | 33932 ft | 377 kts | 297° |
| 2026-04-26 04:56 | 37.60925 | -122.34680 | 33925 ft | 377 kts | 297° |
| 2026-04-26 04:57 | 37.63354 | -122.40509 | 33916 ft | 373 kts | 297° |
| 2026-04-26 04:57 | 37.65763 | -122.46307 | 33930 ft | 373 kts | 297° |
| 2026-04-26 04:58 | 37.68151 | -122.52073 | 33922 ft | 373 kts | 297° |
| 2026-04-26 04:58 | 37.70555 | -122.57882 | 33920 ft | 373 kts | 297° |
| 2026-04-26 04:59 | 37.72958 | -122.63693 | 33911 ft | 373 kts | 297° |
| 2026-04-26 04:59 | 37.75350 | -122.69510 | 33917 ft | 373 kts | 297° |
| 2026-04-26 05:00 | 37.77737 | -122.75330 | 33916 ft | 373 kts | 297° |
| 2026-04-26 05:00 | 37.80122 | -122.81155 | 33909 ft | 373 kts | 297° |
| 2026-04-26 05:01 | 37.82508 | -122.86981 | 33908 ft | 373 kts | 297° |
| 2026-04-26 05:01 | 37.84894 | -122.92820 | 33900 ft | 373 kts | 297° |
| 2026-04-26 05:02 | 37.86866 | -122.97669 | 33901 ft | 373 kts | 297° |
| 2026-04-26 05:02 | 37.89242 | -123.03522 | 33899 ft | 374 kts | 297° |
| 2026-04-26 05:03 | 37.91617 | -123.09376 | 33904 ft | 374 kts | 297° |
| 2026-04-26 05:03 | 37.93992 | -123.15235 | 33902 ft | 374 kts | 297° |
| 2026-04-26 05:04 | 37.96360 | -123.21105 | 33896 ft | 374 kts | 297° |
| 2026-04-26 05:04 | 37.98719 | -123.26975 | 33901 ft | 374 kts | 297° |
| 2026-04-26 05:05 | 38.01085 | -123.32849 | 33898 ft | 374 kts | 297° |
| 2026-04-26 05:05 | 38.03456 | -123.38726 | 33898 ft | 374 kts | 297° |
| 2026-04-26 05:06 | 38.05826 | -123.44601 | 33898 ft | 374 kts | 297° |
| 2026-04-26 05:06 | 38.08194 | -123.50474 | 33895 ft | 374 kts | 297° |
| 2026-04-26 05:07 | 38.10566 | -123.56347 | 33898 ft | 374 kts | 297° |
| 2026-04-26 05:07 | 38.12943 | -123.62220 | 33896 ft | 374 kts | 297° |
| 2026-04-26 05:08 | 38.15320 | -123.68089 | 33898 ft | 374 kts | 297° |
| 2026-04-26 05:08 | 38.17670 | -123.73921 | 33896 ft | 373 kts | 297° |
| 2026-04-26 05:09 | 38.20026 | -123.79796 | 33900 ft | 373 kts | 297° |
| 2026-04-26 05:09 | 38.22386 | -123.85664 | 33896 ft | 373 kts | 297° |
| 2026-04-26 05:10 | 38.24752 | -123.91536 | 33901 ft | 373 kts | 297° |
| 2026-04-26 05:10 | 38.27113 | -123.97398 | 33893 ft | 372 kts | 297° |
| 2026-04-26 05:11 | 38.29447 | -124.03251 | 33897 ft | 370 kts | 297° |
| 2026-04-26 05:11 | 38.31766 | -124.09087 | 33909 ft | 368 kts | 297° |
| 2026-04-26 05:12 | 38.34085 | -124.14900 | 33908 ft | 367 kts | 297° |
| 2026-04-26 05:12 | 38.36402 | -124.20693 | 33912 ft | 367 kts | 297° |
| 2026-04-26 05:13 | 38.38701 | -124.26491 | 33907 ft | 367 kts | 298° |
| 2026-04-26 05:13 | 38.40982 | -124.32296 | 33918 ft | 366 kts | 297° |
| 2026-04-26 05:14 | 38.43275 | -124.38095 | 33915 ft | 366 kts | 297° |
| 2026-04-26 05:14 | 38.45585 | -124.43893 | 33914 ft | 367 kts | 297° |
| 2026-04-26 05:15 | 38.47899 | -124.49697 | 33905 ft | 367 kts | 298° |
| 2026-04-26 05:15 | 38.50195 | -124.55509 | 33912 ft | 367 kts | 297° |
| 2026-04-26 05:16 | 38.52489 | -124.61321 | 33919 ft | 366 kts | 297° |
| 2026-04-26 05:16 | 38.54797 | -124.67124 | 33920 ft | 366 kts | 297° |
| 2026-04-26 05:17 | 38.57110 | -124.72924 | 33922 ft | 366 kts | 297° |
| 2026-04-26 05:17 | 38.59409 | -124.78725 | 33923 ft | 366 kts | 297° |
| 2026-04-26 05:18 | 38.61699 | -124.84524 | 33929 ft | 365 kts | 297° |
| 2026-04-26 05:18 | 38.63995 | -124.90312 | 33936 ft | 365 kts | 297° |
| 2026-04-26 05:19 | 38.66297 | -124.96101 | 33934 ft | 365 kts | 297° |
| 2026-04-26 05:19 | 38.68579 | -125.01853 | 33918 ft | 365 kts | 297° |
| 2026-04-26 05:20 | 38.70863 | -125.07647 | 33925 ft | 365 kts | 297° |
| 2026-04-26 05:20 | 38.73164 | -125.13491 | 33937 ft | 365 kts | 297° |
| 2026-04-26 05:21 | 38.75430 | -125.19276 | 33938 ft | 365 kts | 297° |
| 2026-04-26 05:21 | 38.77702 | -125.25099 | 33925 ft | 366 kts | 297° |
| 2026-04-26 05:22 | 38.79970 | -125.30930 | 33936 ft | 366 kts | 297° |
| 2026-04-26 05:22 | 38.82233 | -125.36761 | 33967 ft | 366 kts | 297° |
| 2026-04-26 05:23 | 38.84496 | -125.42611 | 33948 ft | 366 kts | 297° |
| 2026-04-26 05:23 | 38.86753 | -125.48464 | 33941 ft | 366 kts | 297° |
| 2026-04-26 05:24 | 38.89004 | -125.54319 | 33938 ft | 366 kts | 297° |
| 2026-04-26 05:24 | 38.91249 | -125.60183 | 33954 ft | 366 kts | 297° |
| 2026-04-26 05:25 | 38.93492 | -125.66057 | 33962 ft | 366 kts | 297° |
| 2026-04-26 05:25 | 38.95737 | -125.71942 | 33943 ft | 367 kts | 297° |
| 2026-04-26 05:26 | 38.97982 | -125.77831 | 33940 ft | 367 kts | 297° |
| 2026-04-26 05:26 | 39.00225 | -125.83726 | 33957 ft | 367 kts | 297° |
| 2026-04-26 05:27 | 39.02469 | -125.89637 | 33964 ft | 368 kts | 297° |
| 2026-04-26 05:27 | 39.04709 | -125.95560 | 33963 ft | 368 kts | 297° |
| 2026-04-26 05:28 | 39.06947 | -126.01484 | 33963 ft | 368 kts | 297° |
| 2026-04-26 05:28 | 39.09184 | -126.07406 | 33959 ft | 368 kts | 297° |
| 2026-04-26 05:29 | 39.11417 | -126.13322 | 33957 ft | 367 kts | 297° |
| 2026-04-26 05:29 | 39.13638 | -126.19228 | 33966 ft | 366 kts | 297° |
| 2026-04-26 05:30 | 39.15852 | -126.25135 | 33963 ft | 366 kts | 297° |
| 2026-04-26 05:30 | 39.18059 | -126.31033 | 33967 ft | 365 kts | 297° |
| 2026-04-26 05:31 | 39.20246 | -126.36884 | 33963 ft | 365 kts | 297° |
| 2026-04-26 05:31 | 39.22460 | -126.42821 | 33962 ft | 365 kts | 297° |
| 2026-04-26 05:32 | 39.24633 | -126.48683 | 33971 ft | 365 kts | 297° |
| 2026-04-26 05:32 | 39.26821 | -126.54596 | 33977 ft | 365 kts | 297° |
| 2026-04-26 05:33 | 39.29012 | -126.60522 | 33981 ft | 366 kts | 297° |
| 2026-04-26 05:33 | 39.31203 | -126.66454 | 33981 ft | 366 kts | 297° |
| 2026-04-26 05:34 | 39.33386 | -126.72394 | 33978 ft | 366 kts | 297° |
| 2026-04-26 05:34 | 39.35563 | -126.78333 | 33977 ft | 365 kts | 297° |
| 2026-04-26 05:35 | 39.37731 | -126.84257 | 33977 ft | 364 kts | 297° |
| 2026-04-26 05:35 | 39.39893 | -126.90172 | 33980 ft | 363 kts | 297° |
| 2026-04-26 05:36 | 39.42044 | -126.96080 | 33975 ft | 363 kts | 297° |
| 2026-04-26 05:36 | 39.44186 | -127.01996 | 33984 ft | 363 kts | 297° |
| 2026-04-26 05:37 | 39.46328 | -127.07921 | 33985 ft | 364 kts | 297° |
| 2026-04-26 05:37 | 39.48474 | -127.13859 | 33985 ft | 365 kts | 297° |
| 2026-04-26 05:38 | 39.50622 | -127.19811 | 33982 ft | 365 kts | 297° |
| 2026-04-26 05:38 | 39.52763 | -127.25793 | 33986 ft | 366 kts | 297° |
| 2026-04-26 05:39 | 39.54896 | -127.31783 | 33994 ft | 367 kts | 297° |
| 2026-04-26 05:39 | 39.57033 | -127.37788 | 33992 ft | 367 kts | 297° |
| 2026-04-26 05:40 | 39.59171 | -127.43801 | 33992 ft | 367 kts | 297° |
| 2026-04-26 05:40 | 39.61291 | -127.49780 | 33991 ft | 367 kts | 297° |
| 2026-04-26 05:41 | 39.63418 | -127.55804 | 33997 ft | 367 kts | 297° |
| 2026-04-26 05:41 | 39.65544 | -127.61831 | 33997 ft | 367 kts | 297° |
| 2026-04-26 05:42 | 39.67666 | -127.67852 | 33996 ft | 367 kts | 297° |
| 2026-04-26 05:42 | 39.69785 | -127.73873 | 33993 ft | 367 kts | 297° |
| 2026-04-26 05:43 | 39.71894 | -127.79897 | 34004 ft | 366 kts | 297° |
| 2026-04-26 05:43 | 39.73998 | -127.85925 | 34003 ft | 366 kts | 297° |
| 2026-04-26 05:44 | 39.76102 | -127.91956 | 34002 ft | 366 kts | 297° |
| 2026-04-26 05:44 | 39.78206 | -127.97986 | 34003 ft | 366 kts | 297° |
| 2026-04-26 05:45 | 39.80305 | -128.04029 | 34007 ft | 367 kts | 297° |
| 2026-04-26 05:45 | 39.82399 | -128.10081 | 34008 ft | 367 kts | 297° |
| 2026-04-26 05:46 | 39.84498 | -128.16140 | 34005 ft | 368 kts | 297° |
| 2026-04-26 05:46 | 39.86613 | -128.22225 | 34015 ft | 370 kts | 297° |
| 2026-04-26 05:47 | 39.88738 | -128.28336 | 34014 ft | 371 kts | 297° |
| 2026-04-26 05:47 | 39.90875 | -128.34477 | 34019 ft | 372 kts | 297° |
| 2026-04-26 05:48 | 39.93014 | -128.40622 | 34019 ft | 372 kts | 297° |
| 2026-04-26 05:48 | 39.95150 | -128.46766 | 34017 ft | 372 kts | 297° |
| 2026-04-26 05:49 | 39.98328 | -128.55918 | 34013 ft | 370 kts | 297° |
| 2026-04-26 05:50 | 40.00445 | -128.62033 | 34022 ft | 370 kts | 297° |
| 2026-04-26 05:50 | 40.02562 | -128.68151 | 34024 ft | 370 kts | 297° |
| 2026-04-26 05:51 | 40.04677 | -128.74266 | 34025 ft | 370 kts | 297° |
| 2026-04-26 05:51 | 40.06793 | -128.80387 | 34021 ft | 370 kts | 297° |
| 2026-04-26 05:52 | 40.08553 | -128.85482 | 34028 ft | 370 kts | 297° |
| 2026-04-26 05:52 | 40.10670 | -128.91616 | 34028 ft | 371 kts | 297° |
| 2026-04-26 05:53 | 40.12793 | -128.97768 | 34027 ft | 371 kts | 297° |
| 2026-04-26 05:53 | 40.14915 | -129.03918 | 34026 ft | 372 kts | 297° |
| 2026-04-26 05:54 | 40.17053 | -129.10080 | 34031 ft | 372 kts | 297° |
| 2026-04-26 05:54 | 40.19206 | -129.16242 | 34042 ft | 373 kts | 297° |
| 2026-04-26 05:55 | 40.21373 | -129.22424 | 34043 ft | 374 kts | 297° |
| 2026-04-26 05:55 | 40.23548 | -129.28630 | 34041 ft | 375 kts | 297° |
| 2026-04-26 05:56 | 40.25724 | -129.34837 | 34037 ft | 375 kts | 297° |
| 2026-04-26 05:56 | 40.27900 | -129.41051 | 34045 ft | 375 kts | 297° |
| 2026-04-26 05:57 | 40.30074 | -129.47263 | 34045 ft | 375 kts | 297° |
| 2026-04-26 05:57 | 40.32247 | -129.53474 | 34048 ft | 375 kts | 297° |
| 2026-04-26 05:58 | 40.34422 | -129.59687 | 34048 ft | 375 kts | 297° |
| 2026-04-26 05:58 | 40.36593 | -129.65896 | 34050 ft | 375 kts | 297° |
| 2026-04-26 05:59 | 40.38758 | -129.72108 | 34056 ft | 375 kts | 297° |
| 2026-04-26 05:59 | 40.40926 | -129.78328 | 34056 ft | 375 kts | 297° |
| 2026-04-26 06:00 | 40.43099 | -129.84551 | 34060 ft | 375 kts | 297° |
| 2026-04-26 06:00 | 40.45273 | -129.90784 | 34054 ft | 376 kts | 297° |
| 2026-04-26 06:01 | 40.47442 | -129.97026 | 34065 ft | 376 kts | 297° |
| 2026-04-26 06:01 | 40.49614 | -130.03277 | 34059 ft | 376 kts | 298° |
| 2026-04-26 06:02 | 40.51800 | -130.09533 | 34065 ft | 377 kts | 297° |
| 2026-04-26 06:02 | 40.54003 | -130.15792 | 34071 ft | 378 kts | 297° |
| 2026-04-26 06:03 | 40.56199 | -130.22070 | 34069 ft | 378 kts | 298° |
| 2026-04-26 06:03 | 40.58390 | -130.28366 | 34073 ft | 379 kts | 297° |
| 2026-04-26 06:04 | 40.60582 | -130.34612 | 34077 ft | 379 kts | 297° |
| 2026-04-26 06:04 | 40.62798 | -130.40902 | 34077 ft | 379 kts | 298° |
| 2026-04-26 06:05 | 40.65000 | -130.47194 | 34071 ft | 378 kts | 298° |
| 2026-04-26 06:05 | 40.67188 | -130.53492 | 34074 ft | 378 kts | 296° |
| 2026-04-26 06:06 | 40.69381 | -130.59780 | 34083 ft | 377 kts | 297° |
| 2026-04-26 06:06 | 40.71607 | -130.66051 | 34089 ft | 377 kts | 298° |
| 2026-04-26 06:07 | 40.73815 | -130.72332 | 34088 ft | 378 kts | 298° |
| 2026-04-26 06:07 | 40.76002 | -130.78634 | 34090 ft | 378 kts | 296° |
| 2026-04-26 06:08 | 40.78213 | -130.84931 | 34089 ft | 378 kts | 298° |
| 2026-04-26 06:08 | 40.80445 | -130.91232 | 34083 ft | 379 kts | 298° |
| 2026-04-26 06:09 | 40.82655 | -130.97549 | 34100 ft | 379 kts | 296° |
| 2026-04-26 06:09 | 40.84820 | -131.03898 | 34098 ft | 379 kts | 297° |
| 2026-04-26 06:10 | 40.87032 | -131.10229 | 34088 ft | 379 kts | 297° |
| 2026-04-26 06:10 | 40.89256 | -131.16541 | 34102 ft | 379 kts | 297° |
| 2026-04-26 06:11 | 40.91484 | -131.22836 | 34087 ft | 378 kts | 298° |
| 2026-04-26 06:11 | 40.93688 | -131.29081 | 34100 ft | 376 kts | 298° |
| 2026-04-26 06:12 | 40.95894 | -131.35350 | 34103 ft | 375 kts | 297° |
| 2026-04-26 06:12 | 40.98130 | -131.41594 | 34104 ft | 375 kts | 298° |
| 2026-04-26 06:13 | 41.00379 | -131.47834 | 34105 ft | 376 kts | 297° |
| 2026-04-26 06:13 | 41.02613 | -131.54086 | 34117 ft | 376 kts | 298° |
| 2026-04-26 06:14 | 41.04846 | -131.60351 | 34110 ft | 376 kts | 297° |
| 2026-04-26 06:14 | 41.07106 | -131.66620 | 34117 ft | 378 kts | 299° |
| 2026-04-26 06:15 | 41.09364 | -131.72907 | 34126 ft | 378 kts | 297° |
| 2026-04-26 06:15 | 41.11573 | -131.79242 | 34125 ft | 378 kts | 298° |
| 2026-04-26 06:16 | 41.13815 | -131.85551 | 34119 ft | 378 kts | 297° |
| 2026-04-26 06:16 | 41.16086 | -131.91849 | 34130 ft | 378 kts | 298° |
| 2026-04-26 06:17 | 41.18348 | -131.98154 | 34130 ft | 379 kts | 298° |
| 2026-04-26 06:17 | 41.20602 | -132.04474 | 34125 ft | 379 kts | 298° |
| 2026-04-26 06:18 | 41.22875 | -132.10781 | 34124 ft | 378 kts | 297° |
| 2026-04-26 06:18 | 41.25177 | -132.17067 | 34150 ft | 378 kts | 298° |
| 2026-04-26 06:19 | 41.27463 | -132.23374 | 34140 ft | 379 kts | 297° |
| 2026-04-26 06:19 | 41.29744 | -132.29682 | 34136 ft | 379 kts | 298° |
| 2026-04-26 06:20 | 41.32034 | -132.35988 | 34138 ft | 379 kts | 297° |
| 2026-04-26 06:20 | 41.34338 | -132.42292 | 34148 ft | 379 kts | 297° |
| 2026-04-26 06:21 | 41.36652 | -132.48610 | 34154 ft | 380 kts | 297° |
| 2026-04-26 06:21 | 41.38980 | -132.54940 | 34152 ft | 381 kts | 297° |
| 2026-04-26 06:22 | 41.41309 | -132.61235 | 34147 ft | 382 kts | 298° |
| 2026-04-26 06:22 | 41.43666 | -132.67634 | 34140 ft | 383 kts | 297° |
| 2026-04-26 06:23 | 41.46004 | -132.73956 | 34156 ft | 383 kts | 297° |
| 2026-04-26 06:23 | 41.48391 | -132.80357 | 34157 ft | 383 kts | 297° |
| 2026-04-26 06:24 | 41.50756 | -132.86685 | 34162 ft | 384 kts | 297° |
| 2026-04-26 06:24 | 41.53128 | -132.93059 | 34162 ft | 383 kts | 298° |
| 2026-04-26 06:25 | 41.55515 | -132.99422 | 34169 ft | 384 kts | 297° |
| 2026-04-26 06:25 | 41.57922 | -133.05782 | 34170 ft | 384 kts | 298° |
| 2026-04-26 06:26 | 41.60332 | -133.12159 | 34169 ft | 385 kts | 297° |
| 2026-04-26 06:26 | 41.62736 | -133.18543 | 34165 ft | 385 kts | 298° |
| 2026-04-26 06:27 | 41.65155 | -133.24928 | 34170 ft | 385 kts | 297° |
| 2026-04-26 06:27 | 41.67587 | -133.31315 | 34175 ft | 385 kts | 297° |
| 2026-04-26 06:28 | 41.70020 | -133.37712 | 34182 ft | 386 kts | 297° |
| 2026-04-26 06:28 | 41.72458 | -133.44113 | 34183 ft | 386 kts | 297° |
| 2026-04-26 06:29 | 41.74904 | -133.50523 | 34174 ft | 387 kts | 297° |
| 2026-04-26 06:29 | 41.77359 | -133.56938 | 34190 ft | 387 kts | 297° |
| 2026-04-26 06:30 | 41.79823 | -133.63364 | 34191 ft | 388 kts | 297° |
| 2026-04-26 06:30 | 41.82293 | -133.69795 | 34195 ft | 388 kts | 297° |
| 2026-04-26 06:31 | 41.84759 | -133.76231 | 34194 ft | 388 kts | 297° |
| 2026-04-26 06:31 | 41.87232 | -133.82674 | 34197 ft | 388 kts | 297° |
| 2026-04-26 06:32 | 41.89704 | -133.89111 | 34195 ft | 388 kts | 297° |
| 2026-04-26 06:32 | 41.92172 | -133.95546 | 34197 ft | 388 kts | 297° |
| 2026-04-26 06:33 | 41.94636 | -134.01978 | 34202 ft | 387 kts | 297° |
| 2026-04-26 06:33 | 41.97118 | -134.08409 | 34189 ft | 389 kts | 297° |
| 2026-04-26 06:34 | 41.99636 | -134.14866 | 34212 ft | 391 kts | 297° |
| 2026-04-26 06:34 | 42.02175 | -134.21362 | 34216 ft | 393 kts | 297° |
| 2026-04-26 06:35 | 42.04724 | -134.27884 | 34208 ft | 395 kts | 297° |
| 2026-04-26 06:35 | 42.07269 | -134.34374 | 34219 ft | 395 kts | 297° |
| 2026-04-26 06:36 | 42.09843 | -134.40909 | 34219 ft | 395 kts | 297° |
| 2026-04-26 06:36 | 42.12416 | -134.47442 | 34212 ft | 394 kts | 297° |
| 2026-04-26 06:37 | 42.14990 | -134.53966 | 34215 ft | 394 kts | 297° |
| 2026-04-26 06:37 | 42.17564 | -134.60485 | 34234 ft | 394 kts | 297° |
| 2026-04-26 06:38 | 42.20144 | -134.66999 | 34223 ft | 394 kts | 297° |
| 2026-04-26 06:38 | 42.22741 | -134.73529 | 34225 ft | 396 kts | 297° |
| 2026-04-26 06:39 | 42.25347 | -134.80081 | 34239 ft | 396 kts | 297° |
| 2026-04-26 06:39 | 42.27954 | -134.86646 | 34224 ft | 397 kts | 297° |
| 2026-04-26 06:40 | 42.30602 | -134.93219 | 34256 ft | 399 kts | 297° |
| 2026-04-26 06:40 | 42.32812 | -134.98706 | 34254 ft | 400 kts | 297° |
| 2026-04-26 06:41 | 42.35471 | -135.05313 | 34228 ft | 400 kts | 297° |
| 2026-04-26 06:41 | 42.38138 | -135.11923 | 34253 ft | 401 kts | 297° |
| 2026-04-26 06:42 | 42.40806 | -135.18533 | 34235 ft | 400 kts | 297° |
| 2026-04-26 06:42 | 42.43480 | -135.25131 | 34234 ft | 400 kts | 297° |
| 2026-04-26 06:43 | 42.46157 | -135.31724 | 34255 ft | 399 kts | 298° |
| 2026-04-26 06:43 | 42.48824 | -135.38319 | 34251 ft | 399 kts | 297° |
| 2026-04-26 06:44 | 42.51508 | -135.44910 | 34264 ft | 400 kts | 298° |
| 2026-04-26 06:44 | 42.54198 | -135.51508 | 34263 ft | 400 kts | 298° |
| 2026-04-26 06:45 | 42.56891 | -135.58120 | 34260 ft | 401 kts | 297° |
| 2026-04-26 06:45 | 42.59596 | -135.64737 | 34266 ft | 401 kts | 298° |
| 2026-04-26 06:46 | 42.62295 | -135.71355 | 34258 ft | 401 kts | 298° |
| 2026-04-26 06:46 | 42.64989 | -135.77929 | 34263 ft | 401 kts | 298° |
| 2026-04-26 06:47 | 42.67716 | -135.84584 | 34264 ft | 400 kts | 298° |
| 2026-04-26 06:47 | 42.70399 | -135.91149 | 34272 ft | 400 kts | 297° |
| 2026-04-26 06:48 | 42.73108 | -135.97754 | 34280 ft | 400 kts | 297° |
| 2026-04-26 06:48 | 42.75824 | -136.04368 | 34278 ft | 400 kts | 297° |
| 2026-04-26 06:49 | 42.78543 | -136.10986 | 34269 ft | 401 kts | 297° |
| 2026-04-26 06:49 | 42.81266 | -136.17612 | 34282 ft | 401 kts | 297° |
| 2026-04-26 06:50 | 42.83987 | -136.24243 | 34284 ft | 401 kts | 297° |
| 2026-04-26 06:50 | 42.86712 | -136.30875 | 34286 ft | 401 kts | 297° |
| 2026-04-26 06:51 | 42.89436 | -136.37510 | 34285 ft | 401 kts | 297° |
| 2026-04-26 06:51 | 42.93522 | -136.47463 | 34295 ft | 401 kts | 297° |
| 2026-04-26 06:52 | 42.96241 | -136.54094 | 34293 ft | 400 kts | 297° |
| 2026-04-26 06:52 | 42.98964 | -136.60731 | 34291 ft | 401 kts | 297° |
| 2026-04-26 06:53 | 43.01688 | -136.67370 | 34300 ft | 401 kts | 297° |
| 2026-04-26 06:53 | 43.04409 | -136.74018 | 34293 ft | 401 kts | 297° |
| 2026-04-26 06:54 | 43.07136 | -136.80672 | 34296 ft | 401 kts | 297° |
| 2026-04-26 06:54 | 43.09864 | -136.87332 | 34298 ft | 401 kts | 297° |
| 2026-04-26 06:55 | 43.12592 | -136.93997 | 34305 ft | 401 kts | 297° |
| 2026-04-26 06:55 | 43.15317 | -137.00663 | 34304 ft | 401 kts | 297° |
| 2026-04-26 06:56 | 43.18036 | -137.07326 | 34308 ft | 401 kts | 297° |
| 2026-04-26 06:56 | 43.20754 | -137.13984 | 34309 ft | 400 kts | 297° |
| 2026-04-26 06:57 | 43.23470 | -137.20645 | 34305 ft | 400 kts | 297° |
| 2026-04-26 06:57 | 43.26183 | -137.27303 | 34306 ft | 400 kts | 297° |
| 2026-04-26 06:58 | 43.28900 | -137.33973 | 34324 ft | 400 kts | 297° |
| 2026-04-26 06:58 | 43.31607 | -137.40644 | 34310 ft | 400 kts | 297° |
| 2026-04-26 06:59 | 43.34313 | -137.47312 | 34317 ft | 400 kts | 297° |
| 2026-04-26 06:59 | 43.37018 | -137.53984 | 34320 ft | 399 kts | 297° |
| 2026-04-26 07:00 | 43.39705 | -137.60613 | 34323 ft | 399 kts | 298° |
| 2026-04-26 07:00 | 43.42402 | -137.67273 | 34326 ft | 399 kts | 297° |
| 2026-04-26 07:01 | 43.45095 | -137.73939 | 34318 ft | 398 kts | 297° |
| 2026-04-26 07:01 | 43.47783 | -137.80586 | 34326 ft | 397 kts | 297° |
| 2026-04-26 07:02 | 43.50462 | -137.87225 | 34327 ft | 397 kts | 297° |
| 2026-04-26 07:02 | 43.53138 | -137.93861 | 34328 ft | 396 kts | 297° |
| 2026-04-26 07:03 | 43.55816 | -138.00499 | 34333 ft | 396 kts | 297° |
| 2026-04-26 07:03 | 43.58483 | -138.07127 | 34328 ft | 395 kts | 297° |
| 2026-04-26 07:04 | 43.61158 | -138.13756 | 34339 ft | 395 kts | 297° |
| 2026-04-26 07:04 | 43.63829 | -138.20396 | 34338 ft | 396 kts | 297° |
| 2026-04-26 07:05 | 43.66500 | -138.27053 | 34335 ft | 396 kts | 297° |
| 2026-04-26 07:05 | 43.69171 | -138.33710 | 34346 ft | 396 kts | 297° |
| 2026-04-26 07:06 | 43.71837 | -138.40374 | 34339 ft | 396 kts | 297° |
| 2026-04-26 07:06 | 43.74506 | -138.47034 | 34352 ft | 396 kts | 297° |
| 2026-04-26 07:07 | 43.77175 | -138.53701 | 34348 ft | 396 kts | 297° |
| 2026-04-26 07:07 | 43.79845 | -138.60376 | 34346 ft | 396 kts | 297° |
| 2026-04-26 07:08 | 43.82515 | -138.67050 | 34349 ft | 396 kts | 297° |
| 2026-04-26 07:08 | 43.85183 | -138.73730 | 34354 ft | 396 kts | 297° |
| 2026-04-26 07:09 | 43.87858 | -138.80408 | 34351 ft | 396 kts | 297° |
| 2026-04-26 07:09 | 43.90539 | -138.87084 | 34350 ft | 396 kts | 297° |
| 2026-04-26 07:11 | 43.97242 | -139.03776 | 34366 ft | 396 kts | 297° |
| 2026-04-26 07:11 | 43.99904 | -139.10408 | 34353 ft | 395 kts | 297° |
| 2026-04-26 07:12 | 44.02579 | -139.17074 | 34359 ft | 395 kts | 297° |
| 2026-04-26 07:12 | 44.05250 | -139.23734 | 34356 ft | 394 kts | 297° |
| 2026-04-26 07:13 | 44.07915 | -139.30384 | 34358 ft | 394 kts | 297° |
| 2026-04-26 07:13 | 44.10581 | -139.37033 | 34361 ft | 394 kts | 297° |
| 2026-04-26 07:14 | 44.13247 | -139.43688 | 34360 ft | 394 kts | 297° |
| 2026-04-26 07:14 | 44.15912 | -139.50348 | 34362 ft | 394 kts | 297° |
| 2026-04-26 07:15 | 44.18578 | -139.57014 | 34361 ft | 394 kts | 297° |
| 2026-04-26 07:15 | 44.21243 | -139.63694 | 34367 ft | 394 kts | 297° |
| 2026-04-26 07:16 | 44.23895 | -139.70372 | 34363 ft | 393 kts | 297° |
| 2026-04-26 07:16 | 44.26544 | -139.77044 | 34366 ft | 393 kts | 297° |
| 2026-04-26 07:17 | 44.29187 | -139.83711 | 34369 ft | 392 kts | 297° |
| 2026-04-26 07:17 | 44.31820 | -139.90364 | 34376 ft | 391 kts | 297° |
| 2026-04-26 07:18 | 44.34430 | -139.97021 | 34374 ft | 390 kts | 298° |
| 2026-04-26 07:18 | 44.37017 | -140.03675 | 34367 ft | 389 kts | 297° |
| 2026-04-26 07:19 | 44.39600 | -140.10301 | 34372 ft | 388 kts | 297° |
| 2026-04-26 07:19 | 44.42176 | -140.16930 | 34373 ft | 388 kts | 297° |
| 2026-04-26 07:20 | 44.44711 | -140.23578 | 34380 ft | 386 kts | 298° |
| 2026-04-26 07:20 | 44.47196 | -140.30236 | 34371 ft | 385 kts | 297° |
| 2026-04-26 07:21 | 44.49665 | -140.36880 | 34374 ft | 384 kts | 297° |
| 2026-04-26 07:21 | 44.52122 | -140.43503 | 34376 ft | 383 kts | 297° |
| 2026-04-26 07:22 | 44.54571 | -140.50129 | 34382 ft | 382 kts | 298° |
| 2026-04-26 07:22 | 44.56977 | -140.56771 | 34374 ft | 382 kts | 297° |
| 2026-04-26 07:23 | 44.59360 | -140.63412 | 34370 ft | 381 kts | 297° |
| 2026-04-26 07:23 | 44.61734 | -140.70045 | 34375 ft | 380 kts | 297° |
| 2026-04-26 07:24 | 44.64088 | -140.76628 | 34376 ft | 380 kts | 297° |
| 2026-04-26 07:24 | 44.66432 | -140.83273 | 34376 ft | 379 kts | 298° |
| 2026-04-26 07:25 | 44.68723 | -140.89922 | 34373 ft | 378 kts | 297° |
| 2026-04-26 07:25 | 44.70996 | -140.96563 | 34375 ft | 376 kts | 297° |
| 2026-04-26 07:26 | 44.73256 | -141.03183 | 34381 ft | 375 kts | 297° |
| 2026-04-26 07:26 | 44.75513 | -141.09804 | 34377 ft | 375 kts | 297° |
| 2026-04-26 07:27 | 44.77711 | -141.16447 | 34377 ft | 374 kts | 298° |
| 2026-04-26 07:27 | 44.79859 | -141.23091 | 34370 ft | 372 kts | 297° |
| 2026-04-26 07:28 | 44.81990 | -141.29723 | 34374 ft | 371 kts | 297° |
| 2026-04-26 07:28 | 44.84109 | -141.36336 | 34375 ft | 370 kts | 297° |
| 2026-04-26 07:29 | 44.85869 | -141.41831 | 34376 ft | 370 kts | 297° |
| 2026-04-26 07:29 | 44.87920 | -141.48471 | 34370 ft | 369 kts | 298° |
| 2026-04-26 07:30 | 44.89920 | -141.55110 | 34367 ft | 367 kts | 297° |
| 2026-04-26 07:30 | 44.91899 | -141.61726 | 34371 ft | 365 kts | 297° |
| 2026-04-26 07:31 | 44.93865 | -141.68320 | 34378 ft | 364 kts | 297° |
| 2026-04-26 07:31 | 44.95828 | -141.74920 | 34371 ft | 365 kts | 297° |
| 2026-04-26 07:32 | 44.97728 | -141.81546 | 34372 ft | 364 kts | 298° |
| 2026-04-26 07:32 | 44.99528 | -141.88193 | 34364 ft | 361 kts | 298° |
| 2026-04-26 07:33 | 45.01261 | -141.94802 | 34369 ft | 357 kts | 297° |
| 2026-04-26 07:33 | 45.02966 | -142.01366 | 34367 ft | 354 kts | 297° |
| 2026-04-26 07:34 | 45.04644 | -142.07857 | 34370 ft | 353 kts | 297° |
| 2026-04-26 07:34 | 45.06295 | -142.14447 | 34363 ft | 353 kts | 298° |
| 2026-04-26 07:35 | 45.07885 | -142.21012 | 34366 ft | 352 kts | 297° |
| 2026-04-26 07:35 | 45.09444 | -142.27513 | 34373 ft | 352 kts | 297° |